Time,TemperatureF,DewpointF,PressureIn,WindDirection,WindDirectionDegrees,WindSpeedMPH,WindSpeedGustMPH,Humidity,HourlyPrecipIn,Conditions,Clouds,dailyrainin,SoftwareType,DateUTC
2013-01-08 00:01:00,28.3,24.4,30.07,WSW,239,3.0,4.0,85,0.00,,,0.01,Wunderground v.1.15,2013-01-08 06:01:00,
2013-01-08 00:02:00,28.2,24.3,30.07,WSW,239,3.0,4.0,85,0.00,,,0.01,Wunderground v.1.15,2013-01-08 06:02:00,
2013-01-08 00:07:00,27.9,24.0,30.07,WSW,239,2.0,2.0,85,0.00,,,0.01,Wunderground v.1.15,2013-01-08 06:07:00,
2013-01-08 00:08:00,27.9,24.0,30.07,WSW,239,2.0,2.0,85,0.00,,,0.01,Wunderground v.1.15,2013-01-08 06:08:00,
2013-01-08 00:10:00,27.8,24.0,30.07,WSW,239,0.0,-999.0,85,-99.99,,,0.01,weatherlink.com 1.10,2013-01-08 06:10:00,
2013-01-08 00:15:00,27.6,23.7,30.07,WSW,239,1.0,3.0,85,0.00,,,0.01,Wunderground v.1.15,2013-01-08 06:15:00,
2013-01-08 00:16:00,27.5,23.9,30.07,WSW,239,1.0,3.0,86,0.00,,,0.01,Wunderground v.1.15,2013-01-08 06:16:00,
2013-01-08 00:21:00,27.4,23.8,30.07,SW,219,2.0,4.0,86,0.00,,,0.01,Wunderground v.1.15,2013-01-08 06:21:00,
2013-01-08 00:22:00,27.4,23.8,30.07,SW,215,3.0,4.0,86,0.00,,,0.00,Wunderground v.1.15,2013-01-08 06:22:00,
2013-01-08 00:24:00,27.4,23.8,30.07,SW,215,3.0,4.0,86,0.00,,,0.00,Wunderground v.1.15,2013-01-08 06:24:00,
2013-01-08 00:25:00,27.4,24.0,30.07,SW,214,3.0,-999.0,86,-99.99,,,0.00,weatherlink.com 1.10,2013-01-08 06:25:00,
2013-01-08 00:26:00,27.3,23.7,30.08,SW,214,3.0,3.0,86,0.00,,,0.00,Wunderground v.1.15,2013-01-08 06:26:00,
2013-01-08 00:29:00,27.4,23.8,30.08,SW,214,3.0,7.0,86,0.00,,,0.00,Wunderground v.1.15,2013-01-08 06:29:00,
2013-01-08 00:30:00,27.4,23.8,30.08,SW,214,2.0,7.0,86,0.00,,,0.00,Wunderground v.1.15,2013-01-08 06:30:00,
2013-01-08 00:35:00,27.4,24.0,30.07,SW,214,2.0,7.0,87,0.00,,,0.00,Wunderground v.1.15,2013-01-08 06:35:00,
2013-01-08 00:38:00,27.6,24.2,30.08,SW,214,2.0,7.0,87,0.00,,,0.00,Wunderground v.1.15,2013-01-08 06:38:00,
2013-01-08 00:39:00,27.6,24.0,30.07,SW,214,2.0,-999.0,87,-99.99,,,0.00,weatherlink.com 1.10,2013-01-08 06:39:00,
2013-01-08 00:44:00,27.8,24.2,30.08,SW,214,2.0,7.0,86,0.00,,,0.00,Wunderground v.1.15,2013-01-08 06:44:00,
2013-01-08 00:48:00,27.8,24.2,30.08,SW,214,2.0,7.0,86,0.00,,,0.00,Wunderground v.1.15,2013-01-08 06:48:00,
2013-01-08 00:50:00,27.8,24.2,30.08,SSW,208,2.0,7.0,86,0.00,,,0.00,Wunderground v.1.15,2013-01-08 06:50:00,
2013-01-08 00:53:00,27.7,24.1,30.08,SSW,208,2.0,7.0,86,0.00,,,0.00,Wunderground v.1.15,2013-01-08 06:53:00,
2013-01-08 00:54:00,27.7,24.1,30.08,SSW,208,2.0,7.0,86,0.00,,,0.00,Wunderground v.1.15,2013-01-08 06:54:00,
2013-01-08 00:57:00,27.6,24.0,30.08,SSW,207,2.0,2.0,86,0.00,,,0.00,Wunderground v.1.15,2013-01-08 06:57:00,
2013-01-08 00:59:00,27.5,23.9,30.08,SSW,207,2.0,3.0,86,0.00,,,0.00,Wunderground v.1.15,2013-01-08 06:59:00,
2013-01-08 01:03:00,27.5,24.1,30.08,SSW,206,2.0,3.0,87,0.00,,,0.00,Wunderground v.1.15,2013-01-08 07:03:00,
2013-01-08 01:05:00,27.4,24.0,30.08,SSW,205,2.0,3.0,87,0.00,,,0.00,Wunderground v.1.15,2013-01-08 07:05:00,
2013-01-08 01:06:00,27.4,24.0,30.08,SSW,205,2.0,2.0,87,0.00,,,0.00,Wunderground v.1.15,2013-01-08 07:06:00,
2013-01-08 01:09:00,27.4,24.0,30.08,SSW,204,3.0,3.0,87,0.00,,,0.00,Wunderground v.1.15,2013-01-08 07:09:00,
2013-01-08 01:11:00,27.3,23.7,30.08,SSW,199,3.0,3.0,86,0.00,,,0.00,Wunderground v.1.15,2013-01-08 07:11:00,
2013-01-08 01:12:00,27.2,23.6,30.08,South,190,3.0,4.0,86,0.00,,,0.00,Wunderground v.1.15,2013-01-08 07:12:00,
2013-01-08 01:17:00,27.1,23.7,30.08,SSW,194,3.0,4.0,87,0.00,,,0.00,Wunderground v.1.15,2013-01-08 07:17:00,
2013-01-08 01:18:00,27.0,23.6,30.08,SSW,192,3.0,4.0,87,0.00,,,0.00,Wunderground v.1.15,2013-01-08 07:18:00,
2013-01-08 01:22:00,27.0,23.6,30.08,SSW,193,3.0,4.0,87,0.00,,,0.00,Wunderground v.1.15,2013-01-08 07:22:00,
2013-01-08 01:23:00,26.9,23.5,30.08,SSW,193,3.0,4.0,87,0.00,,,0.00,Wunderground v.1.15,2013-01-08 07:23:00,
2013-01-08 01:24:00,26.9,24.0,30.09,SSW,193,1.0,-999.0,87,-99.99,,,0.00,weatherlink.com 1.10,2013-01-08 07:24:00,
2013-01-08 01:28:00,26.9,23.5,30.09,SSW,193,2.0,4.0,87,0.00,,,0.00,Wunderground v.1.15,2013-01-08 07:28:00,
2013-01-08 01:29:00,26.9,23.5,30.09,SSW,193,2.0,4.0,87,0.00,,,0.00,Wunderground v.1.15,2013-01-08 07:29:00,
2013-01-08 01:32:00,26.8,23.4,30.09,SSW,193,2.0,4.0,87,0.00,,,0.00,Wunderground v.1.15,2013-01-08 07:32:00,
2013-01-08 01:33:00,26.8,23.4,30.09,SSW,193,2.0,4.0,87,0.00,,,0.00,Wunderground v.1.15,2013-01-08 07:33:00,
2013-01-08 01:34:00,26.8,23.4,30.09,SSW,193,2.0,4.0,87,0.00,,,0.00,Wunderground v.1.15,2013-01-08 07:34:00,
2013-01-08 01:37:00,26.6,23.3,30.09,SSW,193,2.0,4.0,87,0.00,,,0.00,Wunderground v.1.15,2013-01-08 07:37:00,
2013-01-08 01:39:00,26.6,23.3,30.09,SSW,193,2.0,4.0,87,0.00,,,0.00,Wunderground v.1.15,2013-01-08 07:39:00,
2013-01-08 01:43:00,26.5,23.2,30.09,SSW,193,2.0,4.0,87,0.00,,,0.00,Wunderground v.1.15,2013-01-08 07:43:00,
2013-01-08 01:44:00,26.5,23.4,30.09,SSW,193,2.0,4.0,88,0.00,,,0.00,Wunderground v.1.15,2013-01-08 07:44:00,
2013-01-08 01:45:00,26.5,23.4,30.09,SSW,193,2.0,4.0,88,0.00,,,0.00,Wunderground v.1.15,2013-01-08 07:45:00,
2013-01-08 01:48:00,26.6,23.5,30.09,SSW,193,2.0,4.0,88,0.00,,,0.00,Wunderground v.1.15,2013-01-08 07:48:00,
2013-01-08 01:50:00,26.6,23.5,30.09,SSW,193,2.0,4.0,88,0.00,,,0.00,Wunderground v.1.15,2013-01-08 07:50:00,
2013-01-08 01:53:00,26.7,23.6,30.09,SSW,193,2.0,4.0,88,0.00,,,0.00,Wunderground v.1.15,2013-01-08 07:53:00,
2013-01-08 01:56:00,26.7,24.0,30.09,SSW,193,2.0,-999.0,88,-99.99,,,0.00,weatherlink.com 1.10,2013-01-08 07:56:00,
2013-01-08 01:58:00,26.6,23.5,30.09,SSW,193,1.0,2.0,88,0.00,,,0.00,Wunderground v.1.15,2013-01-08 07:58:00,
2013-01-08 02:00:00,26.5,23.4,30.09,SSW,193,2.0,2.0,88,0.00,,,0.00,Wunderground v.1.15,2013-01-08 08:00:00,
2013-01-08 02:01:00,26.5,23.4,30.09,SSW,193,2.0,2.0,88,0.00,,,0.00,Wunderground v.1.15,2013-01-08 08:01:00,
2013-01-08 02:04:00,26.4,23.3,30.09,SSW,193,2.0,2.0,88,0.00,,,0.00,Wunderground v.1.15,2013-01-08 08:04:00,
2013-01-08 02:05:00,26.4,23.3,30.08,SSW,193,2.0,2.0,88,0.00,,,0.00,Wunderground v.1.15,2013-01-08 08:05:00,
2013-01-08 02:09:00,26.3,23.2,30.08,SSW,192,2.0,2.0,88,0.00,,,0.00,Wunderground v.1.15,2013-01-08 08:09:00,
2013-01-08 02:11:00,26.3,23.2,30.09,SSW,192,2.0,3.0,88,0.00,,,0.00,Wunderground v.1.15,2013-01-08 08:11:00,
2013-01-08 02:16:00,26.3,23.2,30.09,SSW,192,2.0,2.0,88,0.00,,,0.00,Wunderground v.1.15,2013-01-08 08:16:00,
2013-01-08 02:17:00,26.3,23.2,30.09,SSW,192,2.0,2.0,88,0.00,,,0.00,Wunderground v.1.15,2013-01-08 08:17:00,
2013-01-08 02:18:00,26.3,23.2,30.09,SSW,192,2.0,2.0,88,0.00,,,0.00,Wunderground v.1.15,2013-01-08 08:18:00,
2013-01-08 02:23:00,26.2,23.1,30.09,SSW,192,2.0,2.0,88,0.00,,,0.00,Wunderground v.1.15,2013-01-08 08:23:00,
2013-01-08 02:24:00,26.1,23.0,30.09,SSW,192,2.0,2.0,88,0.00,,,0.00,Wunderground v.1.15,2013-01-08 08:24:00,
2013-01-08 02:25:00,26.1,23.0,30.09,SSW,192,2.0,-999.0,88,-99.99,,,0.00,weatherlink.com 1.10,2013-01-08 08:25:00,
2013-01-08 02:27:00,26.1,23.0,30.09,SSW,192,2.0,4.0,88,0.00,,,0.00,Wunderground v.1.15,2013-01-08 08:27:00,
2013-01-08 02:28:00,26.0,22.9,30.09,SSW,192,2.0,4.0,88,0.00,,,0.00,Wunderground v.1.15,2013-01-08 08:28:00,
2013-01-08 02:32:00,26.0,22.9,30.09,SSW,192,2.0,4.0,88,0.00,,,0.00,Wunderground v.1.15,2013-01-08 08:32:00,
2013-01-08 02:35:00,26.1,23.3,30.09,SSW,192,1.0,4.0,89,0.00,,,0.00,Wunderground v.1.15,2013-01-08 08:35:00,
2013-01-08 02:36:00,26.1,23.3,30.09,SSW,192,1.0,4.0,89,0.00,,,0.00,Wunderground v.1.15,2013-01-08 08:36:00,
2013-01-08 02:38:00,26.2,23.4,30.09,SSW,192,1.0,4.0,89,0.00,,,0.00,Wunderground v.1.15,2013-01-08 08:38:00,
2013-01-08 02:39:00,26.2,23.4,30.09,SSW,192,1.0,4.0,89,0.00,,,0.00,Wunderground v.1.15,2013-01-08 08:39:00,
2013-01-08 02:43:00,26.3,23.5,30.09,SSW,192,1.0,4.0,89,0.00,,,0.00,Wunderground v.1.15,2013-01-08 08:43:00,
2013-01-08 02:46:00,26.4,23.6,30.09,SSW,192,1.0,4.0,89,0.00,,,0.00,Wunderground v.1.15,2013-01-08 08:46:00,
2013-01-08 02:47:00,26.4,23.6,30.09,SSW,192,2.0,4.0,89,0.00,,,0.00,Wunderground v.1.15,2013-01-08 08:47:00,
2013-01-08 02:49:00,26.3,23.5,30.09,SSW,192,2.0,4.0,89,0.00,,,0.00,Wunderground v.1.15,2013-01-08 08:49:00,
2013-01-08 02:52:00,26.2,23.1,30.09,SSW,192,2.0,4.0,88,0.00,,,0.00,Wunderground v.1.15,2013-01-08 08:52:00,
2013-01-08 02:56:00,26.1,23.0,30.09,SSW,192,1.0,-999.0,88,-99.99,,,0.00,weatherlink.com 1.10,2013-01-08 08:56:00,
2013-01-08 02:58:00,26.0,22.9,30.09,SSW,192,2.0,2.0,88,0.00,,,0.00,Wunderground v.1.15,2013-01-08 08:58:00,
2013-01-08 03:00:00,25.9,22.8,30.09,SSW,192,2.0,2.0,88,0.00,,,0.00,Wunderground v.1.15,2013-01-08 09:00:00,
2013-01-08 03:04:00,25.6,22.8,30.09,SSW,192,1.0,2.0,89,0.00,,,0.00,Wunderground v.1.15,2013-01-08 09:04:00,
2013-01-08 03:05:00,25.5,22.7,30.09,SSW,192,1.0,2.0,89,0.00,,,0.00,Wunderground v.1.15,2013-01-08 09:05:00,
2013-01-08 03:07:00,25.4,22.3,30.09,SSW,192,1.0,2.0,88,0.00,,,0.00,Wunderground v.1.15,2013-01-08 09:07:00,
2013-01-08 03:08:00,25.3,22.5,30.09,SSW,192,1.0,2.0,89,0.00,,,0.00,Wunderground v.1.15,2013-01-08 09:08:00,
2013-01-08 03:13:00,25.1,22.3,30.09,SSW,192,1.0,2.0,89,0.00,,,0.00,Wunderground v.1.15,2013-01-08 09:13:00,
2013-01-08 03:14:00,25.0,22.2,30.09,SSW,192,1.0,2.0,89,0.00,,,0.00,Wunderground v.1.15,2013-01-08 09:14:00,
2013-01-08 03:19:00,24.9,22.4,30.09,SSW,192,1.0,1.0,90,0.00,,,0.00,Wunderground v.1.15,2013-01-08 09:19:00,
2013-01-08 03:24:00,24.9,22.4,30.09,SSW,192,1.0,2.0,90,0.00,,,0.00,Wunderground v.1.15,2013-01-08 09:24:00,
2013-01-08 03:25:00,24.8,22.3,30.09,SSW,192,1.0,2.0,90,0.00,,,0.00,Wunderground v.1.15,2013-01-08 09:25:00,
2013-01-08 03:27:00,24.9,22.4,30.09,SSW,192,1.0,4.0,90,0.00,,,0.00,Wunderground v.1.15,2013-01-08 09:27:00,
2013-01-08 03:31:00,25.0,22.5,30.09,SSW,192,0.0,4.0,90,0.00,,,0.00,Wunderground v.1.15,2013-01-08 09:31:00,
2013-01-08 03:36:00,25.1,22.6,30.09,SSW,192,0.0,4.0,90,0.00,,,0.00,Wunderground v.1.15,2013-01-08 09:36:00,
2013-01-08 03:38:00,25.1,22.6,30.09,SSW,192,0.0,4.0,90,0.00,,,0.00,Wunderground v.1.15,2013-01-08 09:38:00,
2013-01-08 03:39:00,25.2,22.7,30.09,SSW,192,0.0,4.0,90,0.00,,,0.00,Wunderground v.1.15,2013-01-08 09:39:00,
2013-01-08 03:43:00,25.2,22.7,30.09,SSW,192,1.0,4.0,90,0.00,,,0.00,Wunderground v.1.15,2013-01-08 09:43:00,
2013-01-08 03:46:00,25.2,22.7,30.09,SSW,192,1.0,4.0,90,0.00,,,0.00,Wunderground v.1.15,2013-01-08 09:46:00,
2013-01-08 03:48:00,25.1,22.6,30.09,SSW,192,2.0,4.0,90,0.00,,,0.00,Wunderground v.1.15,2013-01-08 09:48:00,
2013-01-08 03:49:00,25.1,22.6,30.09,SSW,192,2.0,4.0,90,0.00,,,0.00,Wunderground v.1.15,2013-01-08 09:49:00,
2013-01-08 03:52:00,25.1,22.6,30.09,SSW,192,2.0,4.0,90,0.00,,,0.00,Wunderground v.1.15,2013-01-08 09:52:00,
2013-01-08 03:57:00,25.0,22.5,30.09,SSW,192,3.0,3.0,90,0.00,,,0.00,Wunderground v.1.15,2013-01-08 09:57:00,
2013-01-08 03:58:00,24.9,22.4,30.09,SSW,192,3.0,3.0,90,0.00,,,0.00,Wunderground v.1.15,2013-01-08 09:58:00,
2013-01-08 03:59:00,24.8,22.3,30.09,SSW,192,3.0,3.0,90,0.00,,,0.00,Wunderground v.1.15,2013-01-08 09:59:00,
2013-01-08 04:02:00,24.7,22.2,30.09,SSW,192,2.0,3.0,90,0.00,,,0.00,Wunderground v.1.15,2013-01-08 10:02:00,
2013-01-08 04:03:00,24.6,22.1,30.09,SSW,192,2.0,3.0,90,0.00,,,0.00,Wunderground v.1.15,2013-01-08 10:03:00,
2013-01-08 04:08:00,24.6,22.3,30.09,SSW,192,1.0,1.0,91,0.00,,,0.00,Wunderground v.1.15,2013-01-08 10:08:00,
2013-01-08 04:10:00,24.6,22.3,30.09,SSW,192,1.0,1.0,91,0.00,,,0.00,Wunderground v.1.15,2013-01-08 10:10:00,
2013-01-08 04:11:00,24.7,22.4,30.09,SSW,192,0.0,1.0,91,0.00,,,0.00,Wunderground v.1.15,2013-01-08 10:11:00,
2013-01-08 04:12:00,24.7,22.4,30.09,SSW,192,0.0,1.0,91,0.00,,,0.00,Wunderground v.1.15,2013-01-08 10:12:00,
2013-01-08 04:13:00,24.6,22.3,30.09,SSW,192,0.0,1.0,91,0.00,,,0.00,Wunderground v.1.15,2013-01-08 10:13:00,
2013-01-08 04:19:00,24.6,22.3,30.09,SSW,192,0.0,0.0,91,0.00,,,0.00,Wunderground v.1.15,2013-01-08 10:19:00,
2013-01-08 04:20:00,24.7,22.4,30.09,SSW,192,0.0,0.0,91,0.00,,,0.00,Wunderground v.1.15,2013-01-08 10:20:00,
2013-01-08 04:23:00,24.7,22.4,30.09,SSW,192,0.0,0.0,91,0.00,,,0.00,Wunderground v.1.15,2013-01-08 10:23:00,
2013-01-08 04:24:00,24.7,22.4,30.09,SSW,192,0.0,0.0,91,0.00,,,0.00,Wunderground v.1.15,2013-01-08 10:24:00,
2013-01-08 04:25:00,24.7,22.4,30.09,SSW,192,0.0,0.0,91,0.00,,,0.00,Wunderground v.1.15,2013-01-08 10:25:00,
2013-01-08 04:28:00,24.7,22.4,30.09,SSW,192,0.0,4.0,91,0.00,,,0.00,Wunderground v.1.15,2013-01-08 10:28:00,
2013-01-08 04:30:00,24.7,22.4,30.08,SSW,192,0.0,4.0,91,0.00,,,0.00,Wunderground v.1.15,2013-01-08 10:30:00,
2013-01-08 04:33:00,24.4,22.2,30.08,SSW,192,0.0,4.0,91,0.00,,,0.00,Wunderground v.1.15,2013-01-08 10:33:00,
2013-01-08 04:34:00,24.3,22.1,30.08,SSW,192,0.0,4.0,91,0.00,,,0.00,Wunderground v.1.15,2013-01-08 10:34:00,
2013-01-08 04:35:00,24.2,21.7,30.08,SSW,192,0.0,4.0,90,0.00,,,0.00,Wunderground v.1.15,2013-01-08 10:35:00,
2013-01-08 04:37:00,23.9,21.4,30.08,SSW,192,1.0,4.0,90,0.00,,,0.00,Wunderground v.1.15,2013-01-08 10:37:00,
2013-01-08 04:38:00,23.8,21.3,30.08,SSW,192,1.0,4.0,90,0.00,,,0.00,Wunderground v.1.15,2013-01-08 10:38:00,
2013-01-08 04:44:00,23.2,21.0,30.08,SSW,192,1.0,4.0,91,0.00,,,0.00,Wunderground v.1.15,2013-01-08 10:44:00,
2013-01-08 04:46:00,23.1,20.9,30.08,SSW,192,1.0,4.0,91,0.00,,,0.00,Wunderground v.1.15,2013-01-08 10:46:00,
2013-01-08 04:47:00,23.0,20.8,30.09,SSW,192,1.0,4.0,91,0.00,,,0.00,Wunderground v.1.15,2013-01-08 10:47:00,
2013-01-08 04:51:00,22.9,20.7,30.09,SSW,192,1.0,4.0,91,0.00,,,0.00,Wunderground v.1.15,2013-01-08 10:51:00,
2013-01-08 04:52:00,22.8,20.6,30.09,SSW,192,1.0,4.0,91,0.00,,,0.00,Wunderground v.1.15,2013-01-08 10:52:00,
2013-01-08 04:54:00,22.8,20.8,30.09,SSW,192,0.0,4.0,92,0.00,,,0.00,Wunderground v.1.15,2013-01-08 10:54:00,
2013-01-08 04:57:00,22.9,20.9,30.09,South,190,1.0,1.0,92,0.00,,,0.00,Wunderground v.1.15,2013-01-08 10:57:00,
2013-01-08 04:59:00,23.0,21.0,30.09,South,190,1.0,2.0,92,0.00,,,0.00,Wunderground v.1.15,2013-01-08 10:59:00,
2013-01-08 05:00:00,23.0,21.0,30.09,South,190,1.0,3.0,92,0.00,,,0.00,Wunderground v.1.15,2013-01-08 11:00:00,
2013-01-08 05:04:00,23.1,21.4,30.09,South,189,2.0,3.0,93,0.00,,,0.00,Wunderground v.1.15,2013-01-08 11:04:00,
2013-01-08 05:05:00,23.1,21.4,30.09,South,189,2.0,3.0,93,0.00,,,0.00,Wunderground v.1.15,2013-01-08 11:05:00,
2013-01-08 05:06:00,23.2,21.5,30.09,South,189,2.0,3.0,93,0.00,,,0.00,Wunderground v.1.15,2013-01-08 11:06:00,
2013-01-08 05:10:00,23.5,22.0,30.09,South,189,3.0,-999.0,93,-99.99,,,0.00,weatherlink.com 1.10,2013-01-08 11:10:00,
2013-01-08 05:12:00,23.5,21.8,30.09,South,189,2.0,3.0,93,0.00,,,0.00,Wunderground v.1.15,2013-01-08 11:12:00,
2013-01-08 05:13:00,23.5,21.8,30.09,South,189,2.0,3.0,93,0.00,,,0.00,Wunderground v.1.15,2013-01-08 11:13:00,
2013-01-08 05:15:00,23.5,21.8,30.09,South,189,2.0,3.0,93,0.00,,,0.00,Wunderground v.1.15,2013-01-08 11:15:00,
2013-01-08 05:19:00,23.5,21.8,30.09,South,189,1.0,2.0,93,0.00,,,0.00,Wunderground v.1.15,2013-01-08 11:19:00,
2013-01-08 05:20:00,23.5,21.8,30.10,South,189,1.0,2.0,93,0.00,,,0.00,Wunderground v.1.15,2013-01-08 11:20:00,
2013-01-08 05:21:00,23.5,21.8,30.09,South,189,1.0,2.0,93,0.00,,,0.00,Wunderground v.1.15,2013-01-08 11:21:00,
2013-01-08 05:23:00,23.6,21.9,30.09,South,189,1.0,2.0,93,0.00,,,0.00,Wunderground v.1.15,2013-01-08 11:23:00,
2013-01-08 05:24:00,23.6,21.9,30.09,South,189,1.0,2.0,93,0.00,,,0.00,Wunderground v.1.15,2013-01-08 11:24:00,
2013-01-08 05:25:00,23.6,22.0,30.09,South,189,2.0,-999.0,93,-99.99,,,0.00,weatherlink.com 1.10,2013-01-08 11:25:00,
2013-01-08 05:29:00,23.5,21.8,30.09,South,189,2.0,3.0,93,0.00,,,0.00,Wunderground v.1.15,2013-01-08 11:29:00,
2013-01-08 05:30:00,23.5,21.8,30.09,South,189,2.0,3.0,93,0.00,,,0.00,Wunderground v.1.15,2013-01-08 11:30:00,
2013-01-08 05:31:00,23.5,21.8,30.09,South,189,2.0,3.0,93,0.00,,,0.00,Wunderground v.1.15,2013-01-08 11:31:00,
2013-01-08 05:34:00,23.6,21.9,30.09,South,189,1.0,3.0,93,0.00,,,0.00,Wunderground v.1.15,2013-01-08 11:34:00,
2013-01-08 05:36:00,23.6,21.9,30.09,South,189,1.0,1.0,93,0.00,,,0.00,Wunderground v.1.15,2013-01-08 11:36:00,
2013-01-08 05:38:00,23.6,21.9,30.09,South,189,1.0,3.0,93,0.00,,,0.00,Wunderground v.1.15,2013-01-08 11:38:00,
2013-01-08 05:39:00,23.6,21.9,30.09,South,189,1.0,3.0,93,0.00,,,0.00,Wunderground v.1.15,2013-01-08 11:39:00,
2013-01-08 05:40:00,23.6,21.9,30.09,South,189,1.0,3.0,93,0.00,,,0.00,Wunderground v.1.15,2013-01-08 11:40:00,
2013-01-08 05:42:00,23.6,22.0,30.09,South,189,1.0,-999.0,93,-99.99,,,0.00,weatherlink.com 1.10,2013-01-08 11:42:00,
2013-01-08 05:43:00,23.6,21.9,30.09,South,189,0.0,3.0,93,0.00,,,0.00,Wunderground v.1.15,2013-01-08 11:43:00,
2013-01-08 05:46:00,23.6,21.9,30.09,South,189,0.0,3.0,93,0.00,,,0.00,Wunderground v.1.15,2013-01-08 11:46:00,
2013-01-08 05:47:00,23.5,21.8,30.09,South,189,0.0,3.0,93,0.00,,,0.00,Wunderground v.1.15,2013-01-08 11:47:00,
2013-01-08 05:49:00,23.5,21.8,30.09,South,189,0.0,3.0,93,0.00,,,0.00,Wunderground v.1.15,2013-01-08 11:49:00,
2013-01-08 05:51:00,23.3,21.3,30.09,South,189,0.0,3.0,92,0.00,,,0.00,Wunderground v.1.15,2013-01-08 11:51:00,
2013-01-08 05:57:00,23.0,21.0,30.09,South,189,0.0,1.0,92,0.00,,,0.00,Wunderground v.1.15,2013-01-08 11:57:00,
2013-01-08 05:58:00,23.0,21.0,30.09,South,189,1.0,-999.0,92,-99.99,,,0.00,weatherlink.com 1.10,2013-01-08 11:58:00,
2013-01-08 06:04:00,22.5,20.5,30.10,South,189,2.0,2.0,92,0.00,,,0.00,Wunderground v.1.15,2013-01-08 12:04:00,
2013-01-08 06:05:00,22.4,20.4,30.09,South,189,2.0,2.0,92,0.00,,,0.00,Wunderground v.1.15,2013-01-08 12:05:00,
2013-01-08 06:09:00,22.1,20.1,30.10,South,189,2.0,3.0,92,0.00,,,0.00,Wunderground v.1.15,2013-01-08 12:09:00,
2013-01-08 06:11:00,22.1,20.1,30.10,South,188,2.0,3.0,92,0.00,,,0.00,Wunderground v.1.15,2013-01-08 12:11:00,
2013-01-08 06:12:00,22.0,20.0,30.10,South,188,3.0,-999.0,93,-99.99,,,0.00,weatherlink.com 1.10,2013-01-08 12:12:00,
2013-01-08 06:16:00,21.9,20.2,30.10,South,186,2.0,2.0,93,0.00,,,0.00,Wunderground v.1.15,2013-01-08 12:16:00,
2013-01-08 06:17:00,21.8,20.1,30.10,South,188,2.0,3.0,93,0.00,,,0.00,Wunderground v.1.15,2013-01-08 12:17:00,
2013-01-08 06:18:00,21.8,20.1,30.10,South,186,2.0,4.0,93,0.00,,,0.00,Wunderground v.1.15,2013-01-08 12:18:00,
2013-01-08 06:19:00,21.8,20.1,30.10,South,186,3.0,4.0,93,0.00,,,0.00,Wunderground v.1.15,2013-01-08 12:19:00,
2013-01-08 06:22:00,21.7,20.0,30.10,South,186,3.0,4.0,93,0.00,,,0.00,Wunderground v.1.15,2013-01-08 12:22:00,
2013-01-08 06:24:00,21.6,19.9,30.10,South,186,3.0,4.0,93,0.00,,,0.00,Wunderground v.1.15,2013-01-08 12:24:00,
2013-01-08 06:25:00,21.6,19.9,30.10,South,186,3.0,4.0,93,0.00,,,0.00,Wunderground v.1.15,2013-01-08 12:25:00,
2013-01-08 06:29:00,21.6,19.9,30.10,South,186,2.0,3.0,93,0.00,,,0.00,Wunderground v.1.15,2013-01-08 12:29:00,
2013-01-08 06:30:00,21.6,19.9,30.10,South,186,2.0,3.0,93,0.00,,,0.00,Wunderground v.1.15,2013-01-08 12:30:00,
2013-01-08 06:32:00,21.6,19.9,30.10,South,186,2.0,3.0,93,0.00,,,0.00,Wunderground v.1.15,2013-01-08 12:32:00,
2013-01-08 06:35:00,21.6,19.9,30.10,South,186,2.0,3.0,93,0.00,,,0.00,Wunderground v.1.15,2013-01-08 12:35:00,
2013-01-08 06:37:00,21.6,19.9,30.10,South,186,2.0,3.0,93,0.00,,,0.00,Wunderground v.1.15,2013-01-08 12:37:00,
2013-01-08 06:38:00,21.6,19.9,30.10,South,187,2.0,3.0,93,0.00,,,0.00,Wunderground v.1.15,2013-01-08 12:38:00,
2013-01-08 06:40:00,21.6,19.9,30.10,South,186,2.0,3.0,93,0.00,,,0.00,Wunderground v.1.15,2013-01-08 12:40:00,
2013-01-08 06:41:00,21.6,19.9,30.10,South,186,2.0,3.0,93,0.00,,,0.00,Wunderground v.1.15,2013-01-08 12:41:00,
2013-01-08 06:44:00,21.6,19.9,30.10,South,186,2.0,3.0,93,0.00,,,0.00,Wunderground v.1.15,2013-01-08 12:44:00,
2013-01-08 06:46:00,21.5,19.8,30.10,South,186,1.0,3.0,93,0.00,,,0.00,Wunderground v.1.15,2013-01-08 12:46:00,
2013-01-08 06:49:00,21.4,19.7,30.10,South,186,1.0,3.0,93,0.00,,,0.00,Wunderground v.1.15,2013-01-08 12:49:00,
2013-01-08 06:50:00,21.4,19.7,30.10,South,186,1.0,3.0,93,0.00,,,0.00,Wunderground v.1.15,2013-01-08 12:50:00,
2013-01-08 06:52:00,21.3,19.6,30.10,South,186,0.0,3.0,93,0.00,,,0.00,Wunderground v.1.15,2013-01-08 12:52:00,
2013-01-08 06:53:00,21.3,19.6,30.10,South,186,0.0,3.0,93,0.00,,,0.00,Wunderground v.1.15,2013-01-08 12:53:00,
2013-01-08 06:56:00,21.2,20.0,30.10,South,186,0.0,-999.0,93,-99.99,,,0.00,weatherlink.com 1.10,2013-01-08 12:56:00,
2013-01-08 06:58:00,21.0,19.3,30.10,South,186,0.0,0.0,93,0.00,,,0.00,Wunderground v.1.15,2013-01-08 12:58:00,
2013-01-08 07:01:00,20.9,19.2,30.10,South,186,0.0,2.0,93,0.00,,,0.00,Wunderground v.1.15,2013-01-08 13:01:00,
2013-01-08 07:02:00,20.9,19.2,30.10,South,186,0.0,2.0,93,0.00,,,0.00,Wunderground v.1.15,2013-01-08 13:02:00,
2013-01-08 07:03:00,20.8,19.1,30.10,South,186,1.0,2.0,93,0.00,,,0.00,Wunderground v.1.15,2013-01-08 13:03:00,
2013-01-08 07:05:00,20.8,19.1,30.10,South,186,1.0,2.0,93,0.00,,,0.00,Wunderground v.1.15,2013-01-08 13:05:00,
2013-01-08 07:07:00,20.7,19.0,30.10,South,186,1.0,1.0,93,0.00,,,0.00,Wunderground v.1.15,2013-01-08 13:07:00,
2013-01-08 07:10:00,20.6,18.9,30.10,South,186,1.0,1.0,93,0.00,,,0.00,Wunderground v.1.15,2013-01-08 13:10:00,
2013-01-08 07:13:00,20.6,18.9,30.10,South,186,0.0,1.0,93,0.00,,,0.00,Wunderground v.1.15,2013-01-08 13:13:00,
2013-01-08 07:16:00,20.6,18.9,30.10,South,186,0.0,0.0,93,0.00,,,0.00,Wunderground v.1.15,2013-01-08 13:16:00,
2013-01-08 07:17:00,20.6,18.9,30.10,South,186,0.0,0.0,93,0.00,,,0.00,Wunderground v.1.15,2013-01-08 13:17:00,
2013-01-08 07:20:00,20.6,18.9,30.10,South,186,0.0,0.0,93,0.00,,,0.00,Wunderground v.1.15,2013-01-08 13:20:00,
2013-01-08 07:21:00,20.7,19.0,30.10,South,186,0.0,0.0,93,0.00,,,0.00,Wunderground v.1.15,2013-01-08 13:21:00,
2013-01-08 07:26:00,20.6,18.9,30.10,South,186,0.0,0.0,93,0.00,,,0.00,Wunderground v.1.15,2013-01-08 13:26:00,
2013-01-08 07:27:00,20.6,18.9,30.10,South,186,0.0,4.0,93,0.00,,,0.00,Wunderground v.1.15,2013-01-08 13:27:00,
2013-01-08 07:28:00,20.6,18.9,30.10,South,186,0.0,4.0,93,0.00,,,0.00,Wunderground v.1.15,2013-01-08 13:28:00,
2013-01-08 07:31:00,20.6,18.9,30.11,South,186,0.0,4.0,93,0.00,,,0.00,Wunderground v.1.15,2013-01-08 13:31:00,
2013-01-08 07:33:00,20.6,18.9,30.11,South,186,0.0,4.0,93,0.00,,,0.00,Wunderground v.1.15,2013-01-08 13:33:00,
2013-01-08 07:34:00,20.6,18.9,30.11,South,186,0.0,4.0,93,0.00,,,0.00,Wunderground v.1.15,2013-01-08 13:34:00,
2013-01-08 07:37:00,20.5,18.8,30.11,South,186,0.0,4.0,93,0.00,,,0.00,Wunderground v.1.15,2013-01-08 13:37:00,
2013-01-08 07:40:00,20.4,18.7,30.11,South,186,0.0,4.0,93,0.00,,,0.00,Wunderground v.1.15,2013-01-08 13:40:00,
2013-01-08 07:41:00,20.3,19.0,30.11,South,186,0.0,-999.0,93,-99.99,,,0.00,weatherlink.com 1.10,2013-01-08 13:41:00,
2013-01-08 07:44:00,20.3,18.6,30.11,South,186,1.0,4.0,93,0.00,,,0.00,Wunderground v.1.15,2013-01-08 13:44:00,
2013-01-08 07:46:00,20.3,18.6,30.11,South,186,1.0,1.0,93,0.00,,,0.00,Wunderground v.1.15,2013-01-08 13:46:00,
2013-01-08 07:48:00,20.4,18.7,30.11,South,186,0.0,4.0,93,0.00,,,0.00,Wunderground v.1.15,2013-01-08 13:48:00,
2013-01-08 07:51:00,20.4,18.7,30.11,South,186,0.0,4.0,93,0.00,,,0.00,Wunderground v.1.15,2013-01-08 13:51:00,
2013-01-08 07:54:00,20.4,18.7,30.11,South,185,0.0,4.0,93,0.00,,,0.00,Wunderground v.1.15,2013-01-08 13:54:00,
2013-01-08 07:57:00,20.3,18.6,30.11,South,185,0.0,0.0,93,0.00,,,0.00,Wunderground v.1.15,2013-01-08 13:57:00,
2013-01-08 08:01:00,20.4,18.7,30.11,South,185,0.0,2.0,93,0.00,,,0.00,Wunderground v.1.15,2013-01-08 14:01:00,
2013-01-08 08:03:00,20.7,19.2,30.11,South,185,1.0,3.0,94,0.00,,,0.00,Wunderground v.1.15,2013-01-08 14:03:00,
2013-01-08 08:06:00,20.9,19.4,30.11,South,185,1.0,1.0,94,0.00,,,0.00,Wunderground v.1.15,2013-01-08 14:06:00,
2013-01-08 08:07:00,21.0,19.5,30.11,South,185,1.0,1.0,94,0.00,,,0.00,Wunderground v.1.15,2013-01-08 14:07:00,
2013-01-08 08:09:00,21.2,19.7,30.12,South,185,1.0,1.0,94,0.00,,,0.00,Wunderground v.1.15,2013-01-08 14:09:00,
2013-01-08 08:12:00,21.5,20.0,30.12,South,185,0.0,-999.0,94,-99.99,,,0.00,weatherlink.com 1.10,2013-01-08 14:12:00,
2013-01-08 08:15:00,21.6,20.1,30.12,South,185,0.0,1.0,94,0.00,,,0.00,Wunderground v.1.15,2013-01-08 14:15:00,
2013-01-08 08:16:00,21.6,20.1,30.11,South,185,0.0,0.0,94,0.00,,,0.00,Wunderground v.1.15,2013-01-08 14:16:00,
2013-01-08 08:17:00,21.7,20.2,30.11,South,185,0.0,0.0,94,0.00,,,0.00,Wunderground v.1.15,2013-01-08 14:17:00,
2013-01-08 08:18:00,21.9,20.4,30.11,South,185,0.0,0.0,94,0.00,,,0.00,Wunderground v.1.15,2013-01-08 14:18:00,
2013-01-08 08:21:00,22.1,20.6,30.11,South,185,0.0,0.0,94,0.00,,,0.00,Wunderground v.1.15,2013-01-08 14:21:00,
2013-01-08 08:24:00,22.1,20.6,30.11,South,185,0.0,0.0,94,0.00,,,0.00,Wunderground v.1.15,2013-01-08 14:24:00,
2013-01-08 08:26:00,22.2,20.7,30.11,South,185,0.0,0.0,94,0.00,,,0.00,Wunderground v.1.15,2013-01-08 14:26:00,
2013-01-08 08:29:00,22.4,20.9,30.11,South,185,0.0,2.0,94,0.00,,,0.00,Wunderground v.1.15,2013-01-08 14:29:00,
2013-01-08 08:30:00,22.5,21.0,30.11,South,185,0.0,2.0,94,0.00,,,0.00,Wunderground v.1.15,2013-01-08 14:30:00,
2013-01-08 08:35:00,23.0,21.5,30.12,South,185,0.0,2.0,94,0.00,,,0.00,Wunderground v.1.15,2013-01-08 14:35:00,
2013-01-08 08:36:00,23.1,21.6,30.11,South,185,0.0,2.0,94,0.00,,,0.00,Wunderground v.1.15,2013-01-08 14:36:00,
2013-01-08 08:41:00,23.4,21.9,30.11,South,185,0.0,2.0,94,0.00,,,0.00,Wunderground v.1.15,2013-01-08 14:41:00,
2013-01-08 08:42:00,23.4,22.0,30.11,South,185,0.0,-999.0,93,-99.99,,,0.00,weatherlink.com 1.10,2013-01-08 14:42:00,
2013-01-08 08:43:00,23.4,21.7,30.11,South,185,0.0,2.0,93,0.00,,,0.00,Wunderground v.1.15,2013-01-08 14:43:00,
2013-01-08 08:49:00,23.3,21.6,30.11,South,185,1.0,2.0,93,0.00,,,0.00,Wunderground v.1.15,2013-01-08 14:49:00,
2013-01-08 08:51:00,23.3,21.6,30.11,South,185,1.0,2.0,93,0.00,,,0.00,Wunderground v.1.15,2013-01-08 14:51:00,
2013-01-08 08:55:00,23.3,21.6,30.11,South,172,1.0,2.0,93,0.00,,,0.00,Wunderground v.1.15,2013-01-08 14:55:00,
2013-01-08 08:57:00,23.2,21.2,30.11,South,172,1.0,1.0,92,0.00,,,0.00,Wunderground v.1.15,2013-01-08 14:57:00,
2013-01-08 08:58:00,23.3,21.3,30.11,South,172,1.0,1.0,92,0.00,,,0.00,Wunderground v.1.15,2013-01-08 14:58:00,
2013-01-08 09:02:00,23.2,21.2,30.11,South,172,0.0,1.0,92,0.00,,,0.00,Wunderground v.1.15,2013-01-08 15:02:00,
2013-01-08 09:03:00,23.3,21.3,30.11,South,172,0.0,1.0,92,0.00,,,0.00,Wunderground v.1.15,2013-01-08 15:03:00,
2013-01-08 09:04:00,23.4,21.4,30.11,South,171,0.0,4.0,92,0.00,,,0.00,Wunderground v.1.15,2013-01-08 15:04:00,
2013-01-08 09:09:00,23.3,21.1,30.12,South,171,1.0,2.0,91,0.00,,,0.00,Wunderground v.1.15,2013-01-08 15:09:00,
2013-01-08 09:11:00,23.4,21.2,30.12,South,169,1.0,2.0,91,0.00,,,0.00,Wunderground v.1.15,2013-01-08 15:11:00,
2013-01-08 09:12:00,23.3,21.1,30.11,SSE,168,1.0,2.0,91,0.00,,,0.00,Wunderground v.1.15,2013-01-08 15:12:00,
2013-01-08 09:15:00,23.1,20.9,30.11,SSE,167,1.0,2.0,91,0.00,,,0.00,Wunderground v.1.15,2013-01-08 15:15:00,
2013-01-08 09:17:00,23.1,20.9,30.12,SSE,167,1.0,1.0,91,0.00,,,0.00,Wunderground v.1.15,2013-01-08 15:17:00,
2013-01-08 09:20:00,23.3,21.1,30.12,SSE,166,1.0,4.0,91,0.00,,,0.00,Wunderground v.1.15,2013-01-08 15:20:00,
2013-01-08 09:21:00,23.4,21.2,30.12,SSE,150,1.0,5.0,91,0.00,,,0.00,Wunderground v.1.15,2013-01-08 15:21:00,
2013-01-08 09:23:00,23.4,21.2,30.12,SE,134,1.0,5.0,91,0.00,,,0.00,Wunderground v.1.15,2013-01-08 15:23:00,
2013-01-08 09:27:00,23.7,22.0,30.12,SE,134,0.0,-999.0,91,-99.99,,,0.00,weatherlink.com 1.10,2013-01-08 15:27:00,
2013-01-08 09:29:00,23.8,21.3,30.12,SE,134,2.0,3.0,90,0.00,,,0.00,Wunderground v.1.15,2013-01-08 15:29:00,
2013-01-08 09:33:00,23.8,21.3,30.12,SE,134,2.0,3.0,90,0.00,,,0.00,Wunderground v.1.15,2013-01-08 15:33:00,
2013-01-08 09:37:00,23.6,20.8,30.12,SE,134,1.0,3.0,89,0.00,,,0.00,Wunderground v.1.15,2013-01-08 15:37:00,
2013-01-08 09:39:00,23.7,20.9,30.12,SE,134,1.0,3.0,89,0.00,,,0.00,Wunderground v.1.15,2013-01-08 15:39:00,
2013-01-08 09:41:00,23.9,21.1,30.12,SE,133,1.0,3.0,89,0.00,,,0.00,Wunderground v.1.15,2013-01-08 15:41:00,
2013-01-08 09:43:00,24.0,21.2,30.12,SE,133,1.0,3.0,89,0.00,,,0.00,Wunderground v.1.15,2013-01-08 15:43:00,
2013-01-08 09:47:00,24.5,21.5,30.12,SE,135,1.0,3.0,88,0.00,,,0.00,Wunderground v.1.15,2013-01-08 15:47:00,
2013-01-08 09:48:00,24.6,21.6,30.12,SE,136,1.0,3.0,88,0.00,,,0.00,Wunderground v.1.15,2013-01-08 15:48:00,
2013-01-08 09:52:00,25.4,22.6,30.12,SE,136,1.0,3.0,89,0.00,,,0.00,Wunderground v.1.15,2013-01-08 15:52:00,
2013-01-08 09:53:00,25.5,22.4,30.12,SE,136,0.0,3.0,88,0.00,,,0.00,Wunderground v.1.15,2013-01-08 15:53:00,
2013-01-08 09:57:00,25.8,22.7,30.12,SSW,200,0.0,2.0,88,0.00,,,0.00,Wunderground v.1.15,2013-01-08 15:57:00,
2013-01-08 09:58:00,26.0,22.7,30.12,SSW,199,0.0,2.0,87,0.00,,,0.00,Wunderground v.1.15,2013-01-08 15:58:00,
2013-01-08 09:59:00,26.1,23.0,30.12,SSW,199,0.0,-999.0,87,-99.99,,,0.00,weatherlink.com 1.10,2013-01-08 15:59:00,
2013-01-08 10:00:00,26.1,22.8,30.12,SSW,199,0.0,2.0,87,0.00,,,0.00,Wunderground v.1.15,2013-01-08 16:00:00,
2013-01-08 10:03:00,26.3,22.7,30.12,SSW,199,1.0,3.0,86,0.00,,,0.00,Wunderground v.1.15,2013-01-08 16:03:00,
2013-01-08 10:06:00,26.6,23.0,30.12,SSW,200,1.0,2.0,86,0.00,,,0.00,Wunderground v.1.15,2013-01-08 16:06:00,
2013-01-08 10:08:00,26.8,23.2,30.12,SSW,213,1.0,5.0,86,0.00,,,0.00,Wunderground v.1.15,2013-01-08 16:08:00,
2013-01-08 10:09:00,26.8,22.9,30.12,SSW,206,2.0,5.0,85,0.00,,,0.00,Wunderground v.1.15,2013-01-08 16:09:00,
2013-01-08 10:13:00,26.7,23.0,30.12,SSW,209,1.0,-999.0,86,-99.99,,,0.00,weatherlink.com 1.10,2013-01-08 16:13:00,
2013-01-08 10:15:00,26.8,23.2,30.12,SSW,211,3.0,5.0,86,0.00,,,0.00,Wunderground v.1.15,2013-01-08 16:15:00,
2013-01-08 10:17:00,26.8,23.2,30.12,SSE,165,3.0,6.0,86,0.00,,,0.00,Wunderground v.1.15,2013-01-08 16:17:00,
2013-01-08 10:20:00,27.0,23.6,30.11,SSE,150,3.0,6.0,87,0.00,,,0.00,Wunderground v.1.15,2013-01-08 16:20:00,
2013-01-08 10:23:00,27.3,23.9,30.11,SSW,196,3.0,6.0,87,0.00,,,0.00,Wunderground v.1.15,2013-01-08 16:23:00,
2013-01-08 10:24:00,27.3,23.9,30.11,South,184,3.0,6.0,87,0.00,,,0.00,Wunderground v.1.15,2013-01-08 16:24:00,
2013-01-08 10:26:00,27.4,23.8,30.11,South,191,4.0,4.0,86,0.00,,,0.00,Wunderground v.1.15,2013-01-08 16:26:00,
2013-01-08 10:27:00,27.4,24.0,30.11,South,190,4.0,-999.0,86,-99.99,,,0.00,weatherlink.com 1.10,2013-01-08 16:27:00,
2013-01-08 10:29:00,27.5,23.9,30.11,SSW,205,4.0,6.0,86,0.00,,,0.00,Wunderground v.1.15,2013-01-08 16:29:00,
2013-01-08 10:32:00,27.6,24.0,30.11,SSW,194,4.0,6.0,86,0.00,,,0.00,Wunderground v.1.15,2013-01-08 16:32:00,
2013-01-08 10:37:00,28.0,24.4,30.11,SSW,210,4.0,6.0,86,0.00,,,0.00,Wunderground v.1.15,2013-01-08 16:37:00,
2013-01-08 10:38:00,28.1,24.5,30.11,SSW,197,4.0,6.0,86,0.00,,,0.00,Wunderground v.1.15,2013-01-08 16:38:00,
2013-01-08 10:39:00,28.3,24.6,30.11,SSW,200,3.0,6.0,86,0.00,,,0.00,Wunderground v.1.15,2013-01-08 16:39:00,
2013-01-08 10:42:00,28.8,25.0,30.11,SW,234,0.0,-999.0,86,-99.99,,,0.00,weatherlink.com 1.10,2013-01-08 16:42:00,
2013-01-08 10:44:00,29.1,25.4,30.11,SW,236,2.0,6.0,86,0.00,,,0.00,Wunderground v.1.15,2013-01-08 16:44:00,
2013-01-08 10:46:00,29.3,25.1,30.11,SSW,206,2.0,6.0,84,0.00,,,0.00,Wunderground v.1.15,2013-01-08 16:46:00,
2013-01-08 10:47:00,29.3,25.1,30.10,SSW,209,2.0,6.0,84,0.00,,,0.00,Wunderground v.1.15,2013-01-08 16:47:00,
2013-01-08 10:48:00,29.4,25.2,30.10,SSW,213,2.0,6.0,84,0.00,,,0.00,Wunderground v.1.15,2013-01-08 16:48:00,
2013-01-08 10:50:00,29.5,25.3,30.10,SSW,211,2.0,6.0,84,0.00,,,0.00,Wunderground v.1.15,2013-01-08 16:50:00,
2013-01-08 10:53:00,29.8,25.6,30.10,SW,219,2.0,6.0,84,0.00,,,0.00,Wunderground v.1.15,2013-01-08 16:53:00,
2013-01-08 10:54:00,29.8,25.6,30.10,SW,222,2.0,6.0,84,0.00,,,0.00,Wunderground v.1.15,2013-01-08 16:54:00,
2013-01-08 10:57:00,29.9,25.4,30.10,SSE,168,2.0,2.0,83,0.00,,,0.00,Wunderground v.1.15,2013-01-08 16:57:00,
2013-01-08 10:59:00,30.2,26.0,30.10,South,177,2.0,-999.0,84,-99.99,,,0.00,weatherlink.com 1.10,2013-01-08 16:59:00,
2013-01-08 11:00:00,30.3,25.8,30.10,South,172,1.0,2.0,83,0.00,,,0.00,Wunderground v.1.15,2013-01-08 17:00:00,
2013-01-08 11:04:00,30.8,26.2,30.09,South,181,1.0,2.0,83,0.00,,,0.00,Wunderground v.1.15,2013-01-08 17:04:00,
2013-01-08 11:05:00,30.9,26.3,30.09,South,182,1.0,2.0,83,0.00,,,0.00,Wunderground v.1.15,2013-01-08 17:05:00,
2013-01-08 11:06:00,31.0,26.1,30.09,SSW,204,1.0,1.0,82,0.00,,,0.00,Wunderground v.1.15,2013-01-08 17:06:00,
2013-01-08 11:10:00,31.5,26.6,30.09,South,173,1.0,2.0,82,0.00,,,0.00,Wunderground v.1.15,2013-01-08 17:10:00,
2013-01-08 11:13:00,31.9,27.0,30.09,SSE,150,5.0,-999.0,81,-99.99,,,0.00,weatherlink.com 1.10,2013-01-08 17:13:00,
2013-01-08 11:15:00,32.1,26.6,30.09,South,183,1.0,5.0,80,0.00,,,0.00,Wunderground v.1.15,2013-01-08 17:15:00,
2013-01-08 11:19:00,32.5,27.0,30.09,South,178,1.0,2.0,80,0.00,,,0.00,Wunderground v.1.15,2013-01-08 17:19:00,
2013-01-08 11:20:00,32.6,27.1,30.09,SW,220,1.0,3.0,80,0.00,,,0.00,Wunderground v.1.15,2013-01-08 17:20:00,
2013-01-08 11:21:00,32.7,26.9,30.09,SSW,197,2.0,4.0,79,0.00,,,0.00,Wunderground v.1.15,2013-01-08 17:21:00,
2013-01-08 11:24:00,32.7,26.6,30.08,SSW,192,2.0,5.0,78,0.00,,,0.00,Wunderground v.1.15,2013-01-08 17:24:00,
2013-01-08 11:26:00,32.8,27.0,30.08,South,188,2.0,2.0,79,0.00,,,0.00,Wunderground v.1.15,2013-01-08 17:26:00,
2013-01-08 11:27:00,32.9,27.0,30.08,South,191,2.0,-999.0,79,-99.99,,,0.00,weatherlink.com 1.10,2013-01-08 17:27:00,
2013-01-08 11:29:00,33.0,26.9,30.08,SE,126,2.0,8.0,78,0.00,,,0.00,Wunderground v.1.15,2013-01-08 17:29:00,
2013-01-08 11:33:00,33.0,26.9,30.08,SSW,196,1.0,8.0,78,0.00,,,0.00,Wunderground v.1.15,2013-01-08 17:33:00,
2013-01-08 11:34:00,33.1,27.6,30.08,SSW,199,1.0,8.0,80,0.00,,,0.00,Wunderground v.1.15,2013-01-08 17:34:00,
2013-01-08 11:35:00,33.1,27.3,30.08,SSW,196,1.0,8.0,79,0.00,,,0.00,Wunderground v.1.15,2013-01-08 17:35:00,
2013-01-08 11:36:00,33.2,27.1,30.08,SSW,194,1.0,8.0,78,0.00,,,0.00,Wunderground v.1.15,2013-01-08 17:36:00,
2013-01-08 11:42:00,33.0,27.0,30.08,SSW,193,0.0,-999.0,78,-99.99,,,0.00,weatherlink.com 1.10,2013-01-08 17:42:00,
2013-01-08 11:46:00,33.1,27.3,30.07,South,186,1.0,8.0,79,0.00,,,0.00,Wunderground v.1.15,2013-01-08 17:46:00,
2013-01-08 11:49:00,33.0,26.6,30.07,South,184,1.0,8.0,77,0.00,,,0.00,Wunderground v.1.15,2013-01-08 17:49:00,
2013-01-08 11:52:00,32.9,26.8,30.07,South,181,1.0,8.0,78,0.00,,,0.00,Wunderground v.1.15,2013-01-08 17:52:00,
2013-01-08 11:53:00,32.9,27.1,30.07,South,181,1.0,8.0,79,0.00,,,0.00,Wunderground v.1.15,2013-01-08 17:53:00,
2013-01-08 11:54:00,32.9,26.8,30.07,SSW,192,1.0,8.0,78,0.00,,,0.00,Wunderground v.1.15,2013-01-08 17:54:00,
2013-01-08 11:57:00,33.0,26.9,30.07,South,186,1.0,1.0,78,0.00,,,0.00,Wunderground v.1.15,2013-01-08 17:57:00,
2013-01-08 12:01:00,33.0,26.9,30.07,SSW,200,1.0,4.0,78,0.00,,,0.00,Wunderground v.1.15,2013-01-08 18:01:00,
2013-01-08 12:02:00,33.1,27.0,30.07,SSW,200,1.0,4.0,78,0.00,,,0.00,Wunderground v.1.15,2013-01-08 18:02:00,
2013-01-08 12:03:00,33.1,27.0,30.07,SSW,200,1.0,4.0,78,0.00,,,0.00,Wunderground v.1.15,2013-01-08 18:03:00,
2013-01-08 12:05:00,33.3,27.2,30.07,South,184,1.0,4.0,78,0.00,,,0.00,Wunderground v.1.15,2013-01-08 18:05:00,
2013-01-08 12:07:00,33.5,27.4,30.07,South,180,1.0,2.0,78,0.00,,,0.00,Wunderground v.1.15,2013-01-08 18:07:00,
2013-01-08 12:11:00,34.1,28.0,30.06,SSW,198,1.0,3.0,78,0.00,,,0.00,Wunderground v.1.15,2013-01-08 18:11:00,
2013-01-08 12:12:00,34.3,27.8,30.06,SSW,200,2.0,3.0,77,0.00,,,0.00,Wunderground v.1.15,2013-01-08 18:12:00,
2013-01-08 12:13:00,34.4,27.9,30.06,SSW,200,2.0,3.0,77,0.00,,,0.00,Wunderground v.1.15,2013-01-08 18:13:00,
2013-01-08 12:16:00,34.9,28.1,30.06,ESE,119,2.0,4.0,76,0.00,,,0.00,Wunderground v.1.15,2013-01-08 18:16:00,
2013-01-08 12:17:00,35.1,28.3,30.06,SSW,192,2.0,6.0,76,0.00,,,0.00,Wunderground v.1.15,2013-01-08 18:17:00,
2013-01-08 12:19:00,35.2,28.4,30.06,SSW,200,2.0,6.0,76,0.00,,,0.00,Wunderground v.1.15,2013-01-08 18:19:00,
2013-01-08 12:20:00,35.3,28.5,30.06,South,188,2.0,6.0,76,0.00,,,0.00,Wunderground v.1.15,2013-01-08 18:20:00,
2013-01-08 12:24:00,35.7,28.2,30.06,South,170,2.0,6.0,74,0.00,,,0.00,Wunderground v.1.15,2013-01-08 18:24:00,
2013-01-08 12:27:00,35.7,28.2,30.06,SSW,192,3.0,6.0,74,0.00,,,0.00,Wunderground v.1.15,2013-01-08 18:27:00,
2013-01-08 12:28:00,35.8,28.3,30.05,South,173,2.0,6.0,74,0.00,,,0.00,Wunderground v.1.15,2013-01-08 18:28:00,
2013-01-08 12:29:00,35.9,28.4,30.05,South,178,3.0,6.0,74,0.00,,,0.00,Wunderground v.1.15,2013-01-08 18:29:00,
2013-01-08 12:30:00,35.9,28.7,30.05,South,178,2.0,6.0,75,0.00,,,0.00,Wunderground v.1.15,2013-01-08 18:30:00,
2013-01-08 12:33:00,36.3,28.8,30.05,SE,134,2.0,6.0,74,0.00,,,0.00,Wunderground v.1.15,2013-01-08 18:33:00,
2013-01-08 12:36:00,36.2,28.4,30.05,South,180,2.0,6.0,73,0.00,,,0.00,Wunderground v.1.15,2013-01-08 18:36:00,
2013-01-08 12:38:00,36.2,28.4,30.05,SSW,204,2.0,6.0,73,0.00,,,0.00,Wunderground v.1.15,2013-01-08 18:38:00,
2013-01-08 12:39:00,36.2,28.4,30.05,SSW,195,2.0,6.0,73,0.00,,,0.00,Wunderground v.1.15,2013-01-08 18:39:00,
2013-01-08 12:42:00,36.3,28.5,30.05,SSW,202,2.0,6.0,73,0.00,,,0.00,Wunderground v.1.15,2013-01-08 18:42:00,
2013-01-08 12:45:00,36.4,28.6,30.05,South,184,2.0,6.0,73,0.00,,,0.00,Wunderground v.1.15,2013-01-08 18:45:00,
2013-01-08 12:46:00,36.5,28.7,30.05,SW,222,2.0,6.0,73,0.00,,,0.00,Wunderground v.1.15,2013-01-08 18:46:00,
2013-01-08 12:47:00,36.6,28.8,30.05,SSW,195,2.0,6.0,73,0.00,,,0.00,Wunderground v.1.15,2013-01-08 18:47:00,
2013-01-08 12:50:00,36.6,28.4,30.04,South,170,2.0,6.0,72,0.00,,,0.00,Wunderground v.1.15,2013-01-08 18:50:00,
2013-01-08 12:51:00,36.6,28.4,30.04,SSW,194,2.0,6.0,72,0.00,,,0.00,Wunderground v.1.15,2013-01-08 18:51:00,
2013-01-08 12:56:00,36.0,28.2,30.04,SW,221,3.0,7.0,73,0.00,,,0.00,Wunderground v.1.15,2013-01-08 18:56:00,
2013-01-08 12:57:00,35.9,27.7,30.04,South,170,4.0,7.0,72,0.00,,,0.00,Wunderground v.1.15,2013-01-08 18:57:00,
2013-01-08 13:00:00,35.5,27.7,30.04,South,182,5.0,7.0,73,0.00,,,0.00,Wunderground v.1.15,2013-01-08 19:00:00,
2013-01-08 13:01:00,35.5,27.7,30.04,South,173,6.0,8.0,73,0.00,,,0.00,Wunderground v.1.15,2013-01-08 19:01:00,
2013-01-08 13:02:00,35.5,28.0,30.04,SSW,202,6.0,8.0,74,0.00,,,0.00,Wunderground v.1.15,2013-01-08 19:02:00,
2013-01-08 13:08:00,35.7,28.2,30.04,SSE,148,6.0,7.0,74,0.00,,,0.00,Wunderground v.1.15,2013-01-08 19:08:00,
2013-01-08 13:09:00,35.7,27.9,30.04,SSW,196,6.0,7.0,73,0.00,,,0.00,Wunderground v.1.15,2013-01-08 19:09:00,
2013-01-08 13:10:00,35.7,27.9,30.04,SSW,194,6.0,7.0,73,0.00,,,0.00,Wunderground v.1.15,2013-01-08 19:10:00,
2013-01-08 13:12:00,35.6,28.1,30.04,ESE,119,6.0,7.0,74,0.00,,,0.00,Wunderground v.1.15,2013-01-08 19:12:00,
2013-01-08 13:16:00,35.6,28.1,30.03,South,190,6.0,7.0,74,0.00,,,0.00,Wunderground v.1.15,2013-01-08 19:16:00,
2013-01-08 13:18:00,35.6,28.1,30.03,South,191,7.0,7.0,74,0.00,,,0.00,Wunderground v.1.15,2013-01-08 19:18:00,
2013-01-08 13:19:00,35.6,28.1,30.04,SSE,165,6.0,7.0,74,0.00,,,0.00,Wunderground v.1.15,2013-01-08 19:19:00,
2013-01-08 13:20:00,35.7,28.6,30.03,SSE,158,6.0,7.0,75,0.00,,,0.00,Wunderground v.1.15,2013-01-08 19:20:00,
2013-01-08 13:25:00,35.6,28.1,30.03,SSW,192,6.0,7.0,74,0.00,,,0.00,Wunderground v.1.15,2013-01-08 19:25:00,
2013-01-08 13:26:00,35.5,28.0,30.03,SSW,207,5.0,5.0,74,0.00,,,0.00,Wunderground v.1.15,2013-01-08 19:26:00,
2013-01-08 13:28:00,35.5,28.0,30.03,SSW,202,5.0,7.0,74,0.00,,,0.00,Wunderground v.1.15,2013-01-08 19:28:00,
2013-01-08 13:32:00,35.0,27.9,30.03,South,191,5.0,7.0,75,0.00,,,0.00,Wunderground v.1.15,2013-01-08 19:32:00,
2013-01-08 13:33:00,34.9,27.8,30.03,South,179,5.0,7.0,75,0.00,,,0.00,Wunderground v.1.15,2013-01-08 19:33:00,
2013-01-08 13:36:00,34.8,28.0,30.03,SSW,200,5.0,5.0,76,0.00,,,0.00,Wunderground v.1.15,2013-01-08 19:36:00,
2013-01-08 13:38:00,34.7,27.6,30.03,SW,217,5.0,7.0,75,0.00,,,0.00,Wunderground v.1.15,2013-01-08 19:38:00,
2013-01-08 13:39:00,34.6,27.8,30.03,South,187,5.0,7.0,76,0.00,,,0.00,Wunderground v.1.15,2013-01-08 19:39:00,
2013-01-08 13:40:00,34.6,27.5,30.03,SW,217,5.0,9.0,75,0.00,,,0.00,Wunderground v.1.15,2013-01-08 19:40:00,
2013-01-08 13:44:00,34.6,27.8,30.03,SSE,166,5.0,9.0,76,0.00,,,0.00,Wunderground v.1.15,2013-01-08 19:44:00,
2013-01-08 13:46:00,34.6,27.8,30.03,SW,215,6.0,9.0,76,0.00,,,0.00,Wunderground v.1.15,2013-01-08 19:46:00,
2013-01-08 13:48:00,34.6,27.8,30.03,SSW,193,6.0,7.0,76,0.00,,,0.00,Wunderground v.1.15,2013-01-08 19:48:00,
2013-01-08 13:50:00,34.8,28.0,30.03,SSW,200,5.0,7.0,76,0.00,,,0.00,Wunderground v.1.15,2013-01-08 19:50:00,
2013-01-08 13:51:00,34.8,28.0,30.03,South,186,5.0,11.0,76,0.00,,,0.00,Wunderground v.1.15,2013-01-08 19:51:00,
2013-01-08 13:52:00,34.9,28.1,30.03,SSE,159,6.0,11.0,76,0.00,,,0.00,Wunderground v.1.15,2013-01-08 19:52:00,
2013-01-08 13:57:00,35.0,27.9,30.03,South,184,6.0,8.0,75,0.00,,,0.00,Wunderground v.1.15,2013-01-08 19:57:00,
2013-01-08 13:58:00,35.0,28.0,30.03,SW,218,6.0,-999.0,75,-99.99,,,0.00,weatherlink.com 1.10,2013-01-08 19:58:00,
2013-01-08 14:03:00,35.3,28.5,30.02,SW,223,6.0,8.0,76,0.00,,,0.00,Wunderground v.1.15,2013-01-08 20:03:00,
2013-01-08 14:04:00,35.4,28.6,30.02,SW,215,6.0,8.0,76,0.00,,,0.00,Wunderground v.1.15,2013-01-08 20:04:00,
2013-01-08 14:05:00,35.4,28.3,30.02,South,190,6.0,8.0,75,0.00,,,0.00,Wunderground v.1.15,2013-01-08 20:05:00,
2013-01-08 14:06:00,35.5,28.4,30.02,SSW,192,6.0,7.0,75,0.00,,,0.00,Wunderground v.1.15,2013-01-08 20:06:00,
2013-01-08 14:12:00,35.5,28.4,30.02,South,170,7.0,11.0,75,0.00,,,0.00,Wunderground v.1.15,2013-01-08 20:12:00,
2013-01-08 14:13:00,35.5,28.0,30.02,SSW,202,9.0,-999.0,75,-99.99,,,0.00,weatherlink.com 1.10,2013-01-08 20:13:00,
2013-01-08 14:18:00,35.6,28.5,30.03,SW,220,7.0,10.0,75,0.00,,,0.00,Wunderground v.1.15,2013-01-08 20:18:00,
2013-01-08 14:20:00,35.6,28.5,30.03,SSW,203,7.0,10.0,75,0.00,,,0.00,Wunderground v.1.15,2013-01-08 20:20:00,
2013-01-08 14:21:00,35.6,28.5,30.02,SSW,206,7.0,10.0,75,0.00,,,0.00,Wunderground v.1.15,2013-01-08 20:21:00,
2013-01-08 14:22:00,35.7,28.6,30.02,SSW,200,7.0,10.0,75,0.00,,,0.00,Wunderground v.1.15,2013-01-08 20:22:00,
2013-01-08 14:24:00,35.7,28.6,30.02,SSW,201,6.0,10.0,75,0.00,,,0.00,Wunderground v.1.15,2013-01-08 20:24:00,
2013-01-08 14:27:00,35.8,28.6,30.03,SSE,166,5.0,14.0,75,0.00,,,0.00,Wunderground v.1.15,2013-01-08 20:27:00,
2013-01-08 14:29:00,35.8,28.6,30.03,SW,217,5.0,14.0,75,0.00,,,0.00,Wunderground v.1.15,2013-01-08 20:29:00,
2013-01-08 14:30:00,35.8,28.6,30.02,SSW,193,5.0,14.0,75,0.00,,,0.00,Wunderground v.1.15,2013-01-08 20:30:00,
2013-01-08 14:32:00,35.7,28.6,30.02,SW,219,5.0,14.0,75,0.00,,,0.00,Wunderground v.1.15,2013-01-08 20:32:00,
2013-01-08 14:35:00,35.6,28.5,30.02,SW,215,5.0,14.0,75,0.00,,,0.00,Wunderground v.1.15,2013-01-08 20:35:00,
2013-01-08 14:36:00,35.6,28.5,30.02,SSW,192,5.0,5.0,75,0.00,,,0.00,Wunderground v.1.15,2013-01-08 20:36:00,
2013-01-08 14:38:00,35.6,28.8,30.02,SSW,200,5.0,14.0,76,0.00,,,0.00,Wunderground v.1.15,2013-01-08 20:38:00,
2013-01-08 14:40:00,35.6,28.5,30.02,SW,219,5.0,14.0,75,0.00,,,0.00,Wunderground v.1.15,2013-01-08 20:40:00,
2013-01-08 14:42:00,35.6,28.5,30.02,SW,217,5.0,14.0,75,0.00,,,0.00,Wunderground v.1.15,2013-01-08 20:42:00,
2013-01-08 14:43:00,35.6,28.0,30.02,SW,217,8.0,-999.0,75,-99.99,,,0.00,weatherlink.com 1.10,2013-01-08 20:43:00,
2013-01-08 14:44:00,35.6,28.8,30.02,South,173,5.0,14.0,76,0.00,,,0.00,Wunderground v.1.15,2013-01-08 20:44:00,
2013-01-08 14:46:00,35.7,28.6,30.01,SW,221,6.0,14.0,75,0.00,,,0.00,Wunderground v.1.15,2013-01-08 20:46:00,
2013-01-08 14:51:00,36.0,28.8,30.01,SW,215,6.0,14.0,75,0.00,,,0.00,Wunderground v.1.15,2013-01-08 20:51:00,
2013-01-08 14:52:00,36.0,28.8,30.01,SSW,194,6.0,14.0,75,0.00,,,0.00,Wunderground v.1.15,2013-01-08 20:52:00,
2013-01-08 14:57:00,35.9,28.7,30.01,SSW,212,6.0,7.0,75,0.00,,,0.00,Wunderground v.1.15,2013-01-08 20:57:00,
2013-01-08 14:58:00,35.9,28.7,30.01,SSW,204,6.0,7.0,75,0.00,,,0.00,Wunderground v.1.15,2013-01-08 20:58:00,
2013-01-08 14:59:00,35.8,29.0,30.01,South,189,9.0,-999.0,75,-99.99,,,0.00,weatherlink.com 1.10,2013-01-08 20:59:00,
2013-01-08 15:04:00,35.7,28.9,30.01,SSW,197,7.0,13.0,76,0.00,,,0.00,Wunderground v.1.15,2013-01-08 21:04:00,
2013-01-08 15:05:00,35.7,28.9,30.00,SSE,160,7.0,13.0,76,0.00,,,0.00,Wunderground v.1.15,2013-01-08 21:05:00,
2013-01-08 15:06:00,35.6,28.8,30.01,SW,226,7.0,9.0,76,0.00,,,0.00,Wunderground v.1.15,2013-01-08 21:06:00,
2013-01-08 15:09:00,35.7,28.9,30.00,SSE,159,8.0,9.0,76,0.00,,,0.00,Wunderground v.1.15,2013-01-08 21:09:00,
2013-01-08 15:13:00,35.8,29.0,30.00,SSE,157,7.0,10.0,76,0.00,,,0.00,Wunderground v.1.15,2013-01-08 21:13:00,
2013-01-08 15:15:00,35.8,29.0,30.00,SSW,211,7.0,10.0,76,0.00,,,0.00,Wunderground v.1.15,2013-01-08 21:15:00,
2013-01-08 15:18:00,35.9,28.7,30.00,SSW,209,7.0,7.0,75,0.00,,,0.00,Wunderground v.1.15,2013-01-08 21:18:00,
2013-01-08 15:20:00,35.9,28.7,30.01,SW,221,7.0,7.0,75,0.00,,,0.00,Wunderground v.1.15,2013-01-08 21:20:00,
2013-01-08 15:22:00,35.9,29.1,30.01,SSW,202,6.0,7.0,76,0.00,,,0.00,Wunderground v.1.15,2013-01-08 21:22:00,
2013-01-08 15:25:00,36.0,29.2,30.01,South,191,5.0,7.0,76,0.00,,,0.00,Wunderground v.1.15,2013-01-08 21:25:00,
2013-01-08 15:26:00,36.1,29.3,30.00,SSW,210,5.0,5.0,76,0.00,,,0.00,Wunderground v.1.15,2013-01-08 21:26:00,
2013-01-08 15:29:00,36.4,29.2,30.00,SSW,211,5.0,13.0,75,0.00,,,0.00,Wunderground v.1.15,2013-01-08 21:29:00,
2013-01-08 15:30:00,36.5,29.3,30.00,South,182,5.0,13.0,75,0.00,,,0.00,Wunderground v.1.15,2013-01-08 21:30:00,
2013-01-08 15:32:00,36.5,29.3,30.00,SSW,196,5.0,13.0,75,0.00,,,0.00,Wunderground v.1.15,2013-01-08 21:32:00,
2013-01-08 15:37:00,36.5,29.0,30.00,SSE,165,5.0,13.0,74,0.00,,,0.00,Wunderground v.1.15,2013-01-08 21:37:00,
2013-01-08 15:38:00,36.4,28.9,30.00,SSW,193,6.0,13.0,74,0.00,,,0.00,Wunderground v.1.15,2013-01-08 21:38:00,
2013-01-08 15:41:00,36.0,28.8,30.00,SW,229,6.0,13.0,75,0.00,,,0.00,Wunderground v.1.15,2013-01-08 21:41:00,
2013-01-08 15:44:00,35.7,29.0,30.00,South,180,7.0,-999.0,75,-99.99,,,0.00,weatherlink.com 1.10,2013-01-08 21:44:00,
2013-01-08 15:46:00,35.6,28.8,30.00,South,190,6.0,6.0,76,0.00,,,0.00,Wunderground v.1.15,2013-01-08 21:46:00,
2013-01-08 15:50:00,35.4,28.6,30.00,South,178,6.0,13.0,76,0.00,,,0.00,Wunderground v.1.15,2013-01-08 21:50:00,
2013-01-08 15:52:00,35.3,28.8,30.00,South,176,5.0,13.0,77,0.00,,,0.00,Wunderground v.1.15,2013-01-08 21:52:00,
2013-01-08 15:53:00,35.3,28.8,30.00,SSW,205,5.0,13.0,77,0.00,,,0.00,Wunderground v.1.15,2013-01-08 21:53:00,
2013-01-08 15:54:00,35.3,28.8,30.00,South,170,5.0,13.0,77,0.00,,,0.00,Wunderground v.1.15,2013-01-08 21:54:00,
2013-01-08 15:58:00,35.3,28.8,29.99,SSW,208,6.0,8.0,77,0.00,,,0.00,Wunderground v.1.15,2013-01-08 21:58:00,
2013-01-08 16:01:00,35.5,29.0,29.99,SSE,167,10.0,-999.0,77,-99.99,,,0.00,weatherlink.com 1.10,2013-01-08 22:01:00,
2013-01-08 16:05:00,35.5,29.0,29.99,South,183,6.0,10.0,77,0.00,,,0.00,Wunderground v.1.15,2013-01-08 22:05:00,
2013-01-08 16:07:00,35.5,29.0,29.99,South,178,6.0,6.0,77,0.00,,,0.00,Wunderground v.1.15,2013-01-08 22:07:00,
2013-01-08 16:08:00,35.4,28.9,29.99,SSW,213,6.0,6.0,77,0.00,,,0.00,Wunderground v.1.15,2013-01-08 22:08:00,
2013-01-08 16:09:00,35.4,28.9,29.99,South,186,6.0,6.0,77,0.00,,,0.00,Wunderground v.1.15,2013-01-08 22:09:00,
2013-01-08 16:10:00,35.5,29.0,29.99,South,186,6.0,7.0,77,0.00,,,0.00,Wunderground v.1.15,2013-01-08 22:10:00,
2013-01-08 16:13:00,35.4,28.9,29.99,SSE,162,6.0,7.0,77,0.00,,,0.00,Wunderground v.1.15,2013-01-08 22:13:00,
2013-01-08 16:15:00,35.4,28.9,29.99,South,182,6.0,9.0,77,0.00,,,0.00,Wunderground v.1.15,2013-01-08 22:15:00,
2013-01-08 16:19:00,35.2,28.7,29.98,South,181,5.0,8.0,77,0.00,,,0.00,Wunderground v.1.15,2013-01-08 22:19:00,
2013-01-08 16:21:00,35.2,29.0,29.98,SW,225,5.0,8.0,78,0.00,,,0.00,Wunderground v.1.15,2013-01-08 22:21:00,
2013-01-08 16:22:00,35.1,28.9,29.98,SSE,164,5.0,9.0,78,0.00,,,0.00,Wunderground v.1.15,2013-01-08 22:22:00,
2013-01-08 16:25:00,35.1,28.9,29.98,SSE,163,6.0,9.0,78,0.00,,,0.00,Wunderground v.1.15,2013-01-08 22:25:00,
2013-01-08 16:28:00,35.0,28.8,29.98,South,179,6.0,8.0,78,0.00,,,0.00,Wunderground v.1.15,2013-01-08 22:28:00,
2013-01-08 16:32:00,34.9,28.7,29.98,South,182,6.0,13.0,78,0.00,,,0.00,Wunderground v.1.15,2013-01-08 22:32:00,
2013-01-08 16:33:00,34.8,28.6,29.98,SE,137,6.0,13.0,78,0.00,,,0.00,Wunderground v.1.15,2013-01-08 22:33:00,
2013-01-08 16:34:00,34.8,28.6,29.97,SSW,200,7.0,13.0,78,0.00,,,0.00,Wunderground v.1.15,2013-01-08 22:34:00,
2013-01-08 16:36:00,34.7,28.9,29.97,SSW,203,7.0,13.0,79,0.00,,,0.00,Wunderground v.1.15,2013-01-08 22:36:00,
2013-01-08 16:40:00,34.6,28.8,29.97,SSW,194,6.0,13.0,79,0.00,,,0.00,Wunderground v.1.15,2013-01-08 22:40:00,
2013-01-08 16:42:00,34.5,28.7,29.97,South,184,7.0,13.0,79,0.00,,,0.00,Wunderground v.1.15,2013-01-08 22:42:00,
2013-01-08 16:44:00,34.5,28.7,29.97,SSW,205,6.0,13.0,79,0.00,,,0.00,Wunderground v.1.15,2013-01-08 22:44:00,
2013-01-08 16:46:00,34.4,28.9,29.98,SSW,194,6.0,6.0,80,0.00,,,0.00,Wunderground v.1.15,2013-01-08 22:46:00,
2013-01-08 16:48:00,34.3,28.8,29.97,SE,144,6.0,13.0,80,0.00,,,0.00,Wunderground v.1.15,2013-01-08 22:48:00,
2013-01-08 16:50:00,34.3,28.8,29.97,SSE,168,6.0,13.0,80,0.00,,,0.00,Wunderground v.1.15,2013-01-08 22:50:00,
2013-01-08 16:51:00,34.3,28.8,29.97,SW,215,5.0,13.0,80,0.00,,,0.00,Wunderground v.1.15,2013-01-08 22:51:00,
2013-01-08 16:55:00,34.2,28.7,29.97,SSW,207,5.0,13.0,80,0.00,,,0.00,Wunderground v.1.15,2013-01-08 22:55:00,
2013-01-08 16:57:00,34.1,28.6,29.97,SSW,194,5.0,6.0,80,0.00,,,0.00,Wunderground v.1.15,2013-01-08 22:57:00,
2013-01-08 16:58:00,34.1,28.6,29.97,South,188,5.0,6.0,80,0.00,,,0.00,Wunderground v.1.15,2013-01-08 22:58:00,
2013-01-08 17:02:00,33.9,28.7,29.97,SSE,156,5.0,6.0,81,0.00,,,0.00,Wunderground v.1.15,2013-01-08 23:02:00,
2013-01-08 17:03:00,33.9,28.7,29.97,South,187,5.0,6.0,81,0.00,,,0.00,Wunderground v.1.15,2013-01-08 23:03:00,
2013-01-08 17:04:00,33.9,28.7,29.97,SW,225,5.0,8.0,81,0.00,,,0.00,Wunderground v.1.15,2013-01-08 23:04:00,
2013-01-08 17:05:00,33.9,28.7,29.97,SSW,203,6.0,8.0,81,0.00,,,0.00,Wunderground v.1.15,2013-01-08 23:05:00,
2013-01-08 17:10:00,33.8,28.6,29.97,South,169,7.0,9.0,81,0.00,,,0.00,Wunderground v.1.15,2013-01-08 23:10:00,
2013-01-08 17:11:00,33.8,28.6,29.97,SW,217,7.0,9.0,81,0.00,,,0.00,Wunderground v.1.15,2013-01-08 23:11:00,
2013-01-08 17:12:00,33.8,28.6,29.97,SW,217,7.0,9.0,81,0.00,,,0.00,Wunderground v.1.15,2013-01-08 23:12:00,
2013-01-08 17:14:00,33.7,28.8,29.97,SSW,203,7.0,9.0,82,0.00,,,0.00,Wunderground v.1.15,2013-01-08 23:14:00,
2013-01-08 17:17:00,33.7,28.8,29.97,South,188,7.0,8.0,82,0.00,,,0.00,Wunderground v.1.15,2013-01-08 23:17:00,
2013-01-08 17:20:00,33.7,28.8,29.97,South,187,7.0,8.0,82,0.00,,,0.00,Wunderground v.1.15,2013-01-08 23:20:00,
2013-01-08 17:23:00,33.6,28.7,29.97,SSW,213,6.0,8.0,82,0.00,,,0.00,Wunderground v.1.15,2013-01-08 23:23:00,
2013-01-08 17:24:00,33.6,28.7,29.97,South,186,7.0,8.0,82,0.00,,,0.00,Wunderground v.1.15,2013-01-08 23:24:00,
2013-01-08 17:25:00,33.5,28.6,29.97,SW,217,7.0,8.0,82,0.00,,,0.00,Wunderground v.1.15,2013-01-08 23:25:00,
2013-01-08 17:30:00,33.5,28.6,29.97,South,175,6.0,14.0,82,0.00,,,0.00,Wunderground v.1.15,2013-01-08 23:30:00,
2013-01-08 17:31:00,33.5,28.6,29.97,SSW,198,7.0,14.0,82,0.00,,,0.00,Wunderground v.1.15,2013-01-08 23:31:00,
2013-01-08 17:32:00,33.4,28.5,29.97,South,186,7.0,14.0,82,0.00,,,0.00,Wunderground v.1.15,2013-01-08 23:32:00,
2013-01-08 17:35:00,33.4,28.8,29.97,South,171,7.0,14.0,83,0.00,,,0.00,Wunderground v.1.15,2013-01-08 23:35:00,
2013-01-08 17:36:00,33.4,28.8,29.97,SSW,212,6.0,6.0,83,0.00,,,0.00,Wunderground v.1.15,2013-01-08 23:36:00,
2013-01-08 17:40:00,33.4,28.8,29.96,South,182,7.0,14.0,83,0.00,,,0.00,Wunderground v.1.15,2013-01-08 23:40:00,
2013-01-08 17:41:00,33.4,28.8,29.97,South,177,6.0,14.0,83,0.00,,,0.00,Wunderground v.1.15,2013-01-08 23:41:00,
2013-01-08 17:43:00,33.4,28.8,29.96,SSE,164,7.0,14.0,83,0.00,,,0.00,Wunderground v.1.15,2013-01-08 23:43:00,
2013-01-08 17:45:00,33.5,29.0,29.96,SW,222,7.0,-999.0,83,-99.99,,,0.00,weatherlink.com 1.10,2013-01-08 23:45:00,
2013-01-08 17:48:00,33.5,28.9,29.96,South,188,7.0,14.0,83,0.00,,,0.00,Wunderground v.1.15,2013-01-08 23:48:00,
2013-01-08 17:51:00,33.5,28.9,29.96,South,175,7.0,14.0,83,0.00,,,0.00,Wunderground v.1.15,2013-01-08 23:51:00,
2013-01-08 17:52:00,33.5,28.9,29.96,SSW,208,6.0,14.0,83,0.00,,,0.00,Wunderground v.1.15,2013-01-08 23:52:00,
2013-01-08 17:57:00,33.5,28.9,29.96,SSW,205,6.0,6.0,83,0.00,,,0.00,Wunderground v.1.15,2013-01-08 23:57:00,
2013-01-08 17:58:00,33.6,29.0,29.96,South,169,6.0,11.0,83,0.00,,,0.00,Wunderground v.1.15,2013-01-08 23:58:00,
2013-01-08 17:59:00,33.7,29.0,29.96,SSE,160,7.0,-999.0,83,-99.99,,,0.00,weatherlink.com 1.10,2013-01-08 23:59:00,
2013-01-08 18:02:00,33.8,29.2,29.96,SSE,155,7.0,11.0,83,0.00,,,0.00,Wunderground v.1.15,2013-01-09 00:02:00,
2013-01-08 18:03:00,33.8,29.2,29.96,South,178,7.0,11.0,83,0.00,,,0.00,Wunderground v.1.15,2013-01-09 00:03:00,
2013-01-08 18:04:00,33.8,29.2,29.96,SSW,201,7.0,11.0,83,0.00,,,0.00,Wunderground v.1.15,2013-01-09 00:04:00,
2013-01-08 18:07:00,33.9,29.3,29.96,SSW,211,7.0,12.0,83,0.00,,,0.00,Wunderground v.1.15,2013-01-09 00:07:00,
2013-01-08 18:09:00,34.0,29.4,29.96,SSE,167,7.0,12.0,83,0.00,,,0.00,Wunderground v.1.15,2013-01-09 00:09:00,
2013-01-08 18:11:00,34.0,29.4,29.96,SW,223,6.0,12.0,83,0.00,,,0.00,Wunderground v.1.15,2013-01-09 00:11:00,
2013-01-08 18:13:00,34.0,29.4,29.96,SW,221,7.0,12.0,83,0.00,,,0.00,Wunderground v.1.15,2013-01-09 00:13:00,
2013-01-08 18:15:00,34.0,29.0,29.96,SSW,208,6.0,-999.0,83,-99.99,,,0.00,weatherlink.com 1.10,2013-01-09 00:15:00,
2013-01-08 18:18:00,34.0,29.4,29.96,SSW,204,7.0,9.0,83,0.00,,,0.00,Wunderground v.1.15,2013-01-09 00:18:00,
2013-01-08 18:20:00,34.0,29.4,29.96,SSW,206,7.0,10.0,83,0.00,,,0.00,Wunderground v.1.15,2013-01-09 00:20:00,
2013-01-08 18:21:00,34.0,29.4,29.96,South,182,7.0,10.0,83,0.00,,,0.00,Wunderground v.1.15,2013-01-09 00:21:00,
2013-01-08 18:25:00,34.0,29.4,29.96,SSW,209,7.0,11.0,83,0.00,,,0.00,Wunderground v.1.15,2013-01-09 00:25:00,
2013-01-08 18:27:00,34.1,29.5,29.95,SSE,167,7.0,12.0,83,0.00,,,0.00,Wunderground v.1.15,2013-01-09 00:27:00,
2013-01-08 18:29:00,34.1,29.5,29.95,SW,216,7.0,14.0,83,0.00,,,0.00,Wunderground v.1.15,2013-01-09 00:29:00,
2013-01-08 18:31:00,34.1,30.0,29.95,SSW,201,5.0,-999.0,83,-99.99,,,0.00,weatherlink.com 1.10,2013-01-09 00:31:00,
2013-01-08 18:32:00,34.1,29.5,29.95,South,177,7.0,14.0,83,0.00,,,0.00,Wunderground v.1.15,2013-01-09 00:32:00,
2013-01-08 18:37:00,34.1,29.5,29.95,SW,219,8.0,14.0,83,0.00,,,0.00,Wunderground v.1.15,2013-01-09 00:37:00,
2013-01-08 18:38:00,34.1,29.5,29.95,SW,215,8.0,14.0,83,0.00,,,0.00,Wunderground v.1.15,2013-01-09 00:38:00,
2013-01-08 18:39:00,34.1,29.5,29.95,SW,229,8.0,14.0,83,0.00,,,0.00,Wunderground v.1.15,2013-01-09 00:39:00,
2013-01-08 18:44:00,34.1,29.5,29.95,SSW,200,8.0,14.0,83,0.00,,,0.00,Wunderground v.1.15,2013-01-09 00:44:00,
2013-01-08 18:45:00,34.1,30.0,29.96,SSW,192,5.0,-999.0,83,-99.99,,,0.00,weatherlink.com 1.10,2013-01-09 00:45:00,
2013-01-08 18:47:00,34.1,29.5,29.95,SSW,202,8.0,14.0,83,0.00,,,0.00,Wunderground v.1.15,2013-01-09 00:47:00,
2013-01-08 18:51:00,34.0,29.4,29.96,SW,220,8.0,14.0,83,0.00,,,0.00,Wunderground v.1.15,2013-01-09 00:51:00,
2013-01-08 18:52:00,33.9,29.3,29.96,South,172,7.0,14.0,83,0.00,,,0.00,Wunderground v.1.15,2013-01-09 00:52:00,
2013-01-08 18:54:00,34.0,29.7,29.96,SW,225,7.0,14.0,84,0.00,,,0.00,Wunderground v.1.15,2013-01-09 00:54:00,
2013-01-08 18:57:00,34.0,29.7,29.96,South,184,7.0,7.0,84,0.00,,,0.00,Wunderground v.1.15,2013-01-09 00:57:00,
2013-01-08 18:59:00,34.0,29.7,29.96,South,180,6.0,7.0,84,0.00,,,0.00,Wunderground v.1.15,2013-01-09 00:59:00,
2013-01-08 19:00:00,34.1,30.0,29.96,SSE,164,8.0,-999.0,84,-99.99,,,0.00,weatherlink.com 1.10,2013-01-09 01:00:00,
2013-01-08 19:04:00,34.2,29.9,29.95,SW,219,7.0,10.0,84,0.00,,,0.00,Wunderground v.1.15,2013-01-09 01:04:00,
2013-01-08 19:07:00,34.1,29.5,29.95,SSE,164,7.0,8.0,83,0.00,,,0.00,Wunderground v.1.15,2013-01-09 01:07:00,
2013-01-08 19:09:00,34.1,29.8,29.96,SSW,205,8.0,9.0,84,0.00,,,0.00,Wunderground v.1.15,2013-01-09 01:09:00,
2013-01-08 19:10:00,34.1,29.8,29.96,SSW,207,8.0,9.0,84,0.00,,,0.00,Wunderground v.1.15,2013-01-09 01:10:00,
2013-01-08 19:11:00,34.1,29.8,29.96,SW,220,8.0,9.0,84,0.00,,,0.00,Wunderground v.1.15,2013-01-09 01:11:00,
2013-01-08 19:15:00,34.3,30.0,29.96,South,176,6.0,-999.0,84,-99.99,,,0.00,weatherlink.com 1.10,2013-01-09 01:15:00,
2013-01-08 19:16:00,34.3,30.0,29.96,South,181,7.0,7.0,84,0.00,,,0.00,Wunderground v.1.15,2013-01-09 01:16:00,
2013-01-08 19:17:00,34.3,30.0,29.96,SW,218,7.0,7.0,84,0.00,,,0.00,Wunderground v.1.15,2013-01-09 01:17:00,
2013-01-08 19:23:00,34.3,30.0,29.97,SSW,197,7.0,10.0,84,0.00,,,0.00,Wunderground v.1.15,2013-01-09 01:23:00,
2013-01-08 19:26:00,34.4,30.1,29.97,SW,224,7.0,7.0,84,0.00,,,0.00,Wunderground v.1.15,2013-01-09 01:26:00,
2013-01-08 19:28:00,34.5,30.2,29.98,SSW,213,7.0,17.0,84,0.00,,,0.00,Wunderground v.1.15,2013-01-09 01:28:00,
2013-01-08 19:31:00,34.6,30.0,29.97,SW,222,7.0,-999.0,84,-99.99,,,0.00,weatherlink.com 1.10,2013-01-09 01:31:00,
2013-01-08 19:33:00,34.6,30.3,29.97,SW,225,6.0,17.0,84,0.00,,,0.00,Wunderground v.1.15,2013-01-09 01:33:00,
2013-01-08 19:35:00,34.6,30.3,29.97,South,188,6.0,17.0,84,0.00,,,0.00,Wunderground v.1.15,2013-01-09 01:35:00,
2013-01-08 19:36:00,34.7,30.4,29.97,SW,215,6.0,17.0,84,0.00,,,0.00,Wunderground v.1.15,2013-01-09 01:36:00,
2013-01-08 19:38:00,34.8,30.2,29.97,SW,214,6.0,17.0,83,0.00,,,0.00,Wunderground v.1.15,2013-01-09 01:38:00,
2013-01-08 19:40:00,34.8,30.2,29.97,SW,216,6.0,17.0,83,0.00,,,0.00,Wunderground v.1.15,2013-01-09 01:40:00,
2013-01-08 19:42:00,34.9,30.3,29.96,SW,224,6.0,17.0,83,0.00,,,0.00,Wunderground v.1.15,2013-01-09 01:42:00,
2013-01-08 19:45:00,34.9,30.3,29.96,SSW,207,6.0,17.0,83,0.00,,,0.00,Wunderground v.1.15,2013-01-09 01:45:00,
2013-01-08 19:48:00,34.9,30.3,29.96,SSW,208,6.0,17.0,83,0.00,,,0.00,Wunderground v.1.15,2013-01-09 01:48:00,
2013-01-08 19:51:00,35.0,30.4,29.96,SSW,211,6.0,17.0,83,0.00,,,0.00,Wunderground v.1.15,2013-01-09 01:51:00,
2013-01-08 19:53:00,34.9,30.3,29.96,South,169,6.0,17.0,83,0.00,,,0.00,Wunderground v.1.15,2013-01-09 01:53:00,
2013-01-08 19:58:00,34.8,30.2,29.96,SSW,210,5.0,10.0,83,0.00,,,0.00,Wunderground v.1.15,2013-01-09 01:58:00,
2013-01-08 19:59:00,34.8,30.2,29.96,SSW,200,6.0,10.0,83,0.00,,,0.00,Wunderground v.1.15,2013-01-09 01:59:00,
2013-01-08 20:01:00,34.7,30.1,29.96,SSW,209,5.0,10.0,83,0.00,,,0.00,Wunderground v.1.15,2013-01-09 02:01:00,
2013-01-08 20:04:00,34.7,30.1,29.96,South,189,6.0,10.0,83,0.00,,,0.00,Wunderground v.1.15,2013-01-09 02:04:00,
2013-01-08 20:06:00,34.6,30.0,29.95,SSW,209,5.0,5.0,83,0.00,,,0.00,Wunderground v.1.15,2013-01-09 02:06:00,
2013-01-08 20:07:00,34.6,30.0,29.95,SW,214,5.0,7.0,83,0.00,,,0.00,Wunderground v.1.15,2013-01-09 02:07:00,
2013-01-08 20:12:00,34.4,30.1,29.95,SSE,156,5.0,8.0,84,0.00,,,0.00,Wunderground v.1.15,2013-01-09 02:12:00,
2013-01-08 20:13:00,34.3,30.0,29.95,SSW,202,5.0,8.0,84,0.00,,,0.00,Wunderground v.1.15,2013-01-09 02:13:00,
2013-01-08 20:16:00,34.4,30.1,29.95,SSW,210,6.0,7.0,84,0.00,,,0.00,Wunderground v.1.15,2013-01-09 02:16:00,
2013-01-08 20:18:00,34.3,30.0,29.95,SSW,199,6.0,7.0,84,0.00,,,0.00,Wunderground v.1.15,2013-01-09 02:18:00,
2013-01-08 20:21:00,34.2,29.9,29.94,SSW,209,6.0,7.0,84,0.00,,,0.00,Wunderground v.1.15,2013-01-09 02:21:00,
2013-01-08 20:26:00,34.1,29.8,29.94,SSW,193,6.0,6.0,84,0.00,,,0.00,Wunderground v.1.15,2013-01-09 02:26:00,
2013-01-08 20:28:00,34.1,29.8,29.94,SW,221,6.0,13.0,84,0.00,,,0.00,Wunderground v.1.15,2013-01-09 02:28:00,
2013-01-08 20:29:00,34.1,29.8,29.94,SSW,202,6.0,13.0,84,0.00,,,0.00,Wunderground v.1.15,2013-01-09 02:29:00,
2013-01-08 20:31:00,34.1,29.8,29.94,SSW,195,6.0,13.0,84,0.00,,,0.00,Wunderground v.1.15,2013-01-09 02:31:00,
2013-01-08 20:33:00,34.2,29.9,29.94,SSW,208,6.0,13.0,84,0.00,,,0.00,Wunderground v.1.15,2013-01-09 02:33:00,
2013-01-08 20:36:00,34.2,29.9,29.94,SSW,207,6.0,13.0,84,0.00,,,0.00,Wunderground v.1.15,2013-01-09 02:36:00,
2013-01-08 20:41:00,34.3,30.0,29.94,SSW,198,5.0,13.0,84,0.00,,,0.00,Wunderground v.1.15,2013-01-09 02:41:00,
2013-01-08 20:43:00,34.4,30.1,29.94,SSW,207,6.0,13.0,84,0.00,,,0.00,Wunderground v.1.15,2013-01-09 02:43:00,
2013-01-08 20:45:00,34.5,30.2,29.94,SSW,197,6.0,13.0,84,0.00,,,0.00,Wunderground v.1.15,2013-01-09 02:45:00,
2013-01-08 20:47:00,34.6,30.3,29.94,South,189,6.0,13.0,84,0.00,,,0.00,Wunderground v.1.15,2013-01-09 02:47:00,
2013-01-08 20:48:00,34.7,30.1,29.94,SW,234,6.0,13.0,83,0.00,,,0.00,Wunderground v.1.15,2013-01-09 02:48:00,
2013-01-08 20:51:00,34.9,30.3,29.94,SW,223,7.0,13.0,83,0.00,,,0.00,Wunderground v.1.15,2013-01-09 02:51:00,
2013-01-08 20:54:00,35.0,30.4,29.94,South,182,7.0,13.0,83,0.00,,,0.00,Wunderground v.1.15,2013-01-09 02:54:00,
2013-01-08 20:55:00,35.1,30.5,29.94,SW,223,7.0,13.0,83,0.00,,,0.00,Wunderground v.1.15,2013-01-09 02:55:00,
2013-01-08 20:57:00,35.1,30.5,29.94,SSW,209,7.0,7.0,83,0.00,,,0.00,Wunderground v.1.15,2013-01-09 02:57:00,
2013-01-08 20:59:00,35.2,30.6,29.94,SW,221,6.0,8.0,83,0.00,,,0.00,Wunderground v.1.15,2013-01-09 02:59:00,
2013-01-08 21:00:00,35.3,30.7,29.94,SSW,209,6.0,11.0,83,0.00,,,0.00,Wunderground v.1.15,2013-01-09 03:00:00,
2013-01-08 21:03:00,35.6,30.6,29.94,SSW,194,6.0,11.0,82,0.00,,,0.00,Wunderground v.1.15,2013-01-09 03:03:00,
2013-01-08 21:05:00,35.8,30.8,29.94,SW,236,6.0,11.0,82,0.00,,,0.00,Wunderground v.1.15,2013-01-09 03:05:00,
2013-01-08 21:12:00,36.2,30.9,29.94,South,186,7.0,10.0,81,0.00,,,0.00,Wunderground v.1.15,2013-01-09 03:12:00,
2013-01-08 21:15:00,36.3,31.0,29.94,SSW,198,4.0,-999.0,80,-99.99,,,0.00,weatherlink.com 1.10,2013-01-09 03:15:00,
2013-01-08 21:16:00,36.3,30.7,29.94,SSW,210,7.0,11.0,80,0.00,,,0.00,Wunderground v.1.15,2013-01-09 03:16:00,
2013-01-08 21:17:00,36.4,30.8,29.94,SSW,198,7.0,11.0,80,0.00,,,0.00,Wunderground v.1.15,2013-01-09 03:17:00,
2013-01-08 21:22:00,36.8,30.9,29.94,SSW,194,7.0,11.0,79,0.00,,,0.00,Wunderground v.1.15,2013-01-09 03:22:00,
2013-01-08 21:23:00,36.9,31.0,29.94,SSW,209,8.0,11.0,79,0.00,,,0.00,Wunderground v.1.15,2013-01-09 03:23:00,
2013-01-08 21:27:00,37.1,30.9,29.94,SSW,208,8.0,17.0,78,0.00,,,0.00,Wunderground v.1.15,2013-01-09 03:27:00,
2013-01-08 21:29:00,37.2,31.0,29.94,SSW,198,9.0,17.0,78,0.00,,,0.00,Wunderground v.1.15,2013-01-09 03:29:00,
2013-01-08 21:30:00,37.2,31.0,29.94,SW,219,9.0,17.0,78,0.00,,,0.00,Wunderground v.1.15,2013-01-09 03:30:00,
2013-01-08 21:33:00,37.4,31.2,29.94,SSW,201,9.0,17.0,78,0.00,,,0.00,Wunderground v.1.15,2013-01-09 03:33:00,
2013-01-08 21:34:00,37.4,31.2,29.94,SW,223,9.0,17.0,78,0.00,,,0.00,Wunderground v.1.15,2013-01-09 03:34:00,
2013-01-08 21:35:00,37.3,31.1,29.93,SSW,206,9.0,17.0,78,0.00,,,0.00,Wunderground v.1.15,2013-01-09 03:35:00,
2013-01-08 21:36:00,37.3,31.1,29.94,SSW,213,9.0,14.0,78,0.00,,,0.00,Wunderground v.1.15,2013-01-09 03:36:00,
2013-01-08 21:41:00,37.5,30.9,29.93,SW,234,9.0,14.0,77,0.00,,,0.00,Wunderground v.1.15,2013-01-09 03:41:00,
2013-01-08 21:43:00,37.5,30.9,29.93,WSW,238,8.0,18.0,77,0.00,,,0.00,Wunderground v.1.15,2013-01-09 03:43:00,
2013-01-08 21:44:00,37.5,30.9,29.93,SSW,211,8.0,18.0,77,0.00,,,0.00,Wunderground v.1.15,2013-01-09 03:44:00,
2013-01-08 21:45:00,37.5,31.0,29.93,SW,222,8.0,-999.0,77,-99.99,,,0.00,weatherlink.com 1.10,2013-01-09 03:45:00,
2013-01-08 21:47:00,37.6,31.0,29.93,SSW,209,9.0,14.0,77,0.00,,,0.00,Wunderground v.1.15,2013-01-09 03:47:00,
2013-01-08 21:49:00,37.6,31.0,29.93,SW,229,8.0,14.0,77,0.00,,,0.00,Wunderground v.1.15,2013-01-09 03:49:00,
2013-01-08 21:51:00,37.7,31.1,29.93,SW,216,8.0,14.0,77,0.00,,,0.00,Wunderground v.1.15,2013-01-09 03:51:00,
2013-01-08 21:52:00,37.7,31.1,29.94,SW,234,9.0,14.0,77,0.00,,,0.00,Wunderground v.1.15,2013-01-09 03:52:00,
2013-01-08 21:55:00,37.9,31.0,29.93,SSW,195,9.0,14.0,76,0.00,,,0.00,Wunderground v.1.15,2013-01-09 03:55:00,
2013-01-08 21:58:00,37.9,31.0,29.94,SSE,150,9.0,13.0,76,0.00,,,0.00,Wunderground v.1.15,2013-01-09 03:58:00,
2013-01-08 21:59:00,37.9,31.0,29.93,SW,219,10.0,13.0,76,0.00,,,0.00,Wunderground v.1.15,2013-01-09 03:59:00,
2013-01-08 22:00:00,38.0,31.0,29.93,SW,232,5.0,-999.0,76,-99.99,,,0.00,weatherlink.com 1.10,2013-01-09 04:00:00,
2013-01-08 22:05:00,38.0,31.1,29.93,SSW,196,10.0,13.0,76,0.00,,,0.00,Wunderground v.1.15,2013-01-09 04:05:00,
2013-01-08 22:07:00,37.9,31.0,29.93,SW,236,9.0,12.0,76,0.00,,,0.00,Wunderground v.1.15,2013-01-09 04:07:00,
2013-01-08 22:11:00,37.8,31.2,29.93,South,184,8.0,12.0,77,0.00,,,0.00,Wunderground v.1.15,2013-01-09 04:11:00,
2013-01-08 22:12:00,37.7,31.1,29.93,SW,220,8.0,13.0,77,0.00,,,0.00,Wunderground v.1.15,2013-01-09 04:12:00,
2013-01-08 22:16:00,37.7,31.1,29.93,SW,221,7.0,7.0,77,0.00,,,0.00,Wunderground v.1.15,2013-01-09 04:16:00,
2013-01-08 22:17:00,37.7,31.1,29.93,SW,217,7.0,7.0,77,0.00,,,0.00,Wunderground v.1.15,2013-01-09 04:17:00,
2013-01-08 22:18:00,37.7,31.1,29.93,SSW,212,7.0,8.0,77,0.00,,,0.00,Wunderground v.1.15,2013-01-09 04:18:00,
2013-01-08 22:21:00,37.8,31.2,29.93,SW,218,7.0,9.0,77,0.00,,,0.00,Wunderground v.1.15,2013-01-09 04:21:00,
2013-01-08 22:22:00,37.8,31.2,29.93,SW,221,7.0,12.0,77,0.00,,,0.00,Wunderground v.1.15,2013-01-09 04:22:00,
2013-01-08 22:23:00,37.8,30.9,29.93,SW,221,7.0,12.0,76,0.00,,,0.00,Wunderground v.1.15,2013-01-09 04:23:00,
2013-01-08 22:25:00,37.8,31.2,29.93,SW,218,7.0,12.0,77,0.00,,,0.00,Wunderground v.1.15,2013-01-09 04:25:00,
2013-01-08 22:30:00,37.7,31.1,29.92,SW,215,7.0,20.0,77,0.00,,,0.00,Wunderground v.1.15,2013-01-09 04:30:00,
2013-01-08 22:31:00,37.8,31.0,29.92,SW,223,7.0,-999.0,76,-99.99,,,0.00,weatherlink.com 1.10,2013-01-09 04:31:00,
2013-01-08 22:37:00,37.7,31.1,29.92,SW,229,8.0,20.0,77,0.00,,,0.00,Wunderground v.1.15,2013-01-09 04:37:00,
2013-01-08 22:38:00,37.8,31.2,29.92,SSW,196,8.0,20.0,77,0.00,,,0.00,Wunderground v.1.15,2013-01-09 04:38:00,
2013-01-08 22:40:00,37.7,31.1,29.92,SW,219,7.0,20.0,77,0.00,,,0.00,Wunderground v.1.15,2013-01-09 04:40:00,
2013-01-08 22:43:00,37.8,31.2,29.92,SW,216,8.0,20.0,77,0.00,,,0.00,Wunderground v.1.15,2013-01-09 04:43:00,
2013-01-08 22:45:00,37.8,31.2,29.92,SW,232,8.0,20.0,77,0.00,,,0.00,Wunderground v.1.15,2013-01-09 04:45:00,
2013-01-08 22:47:00,37.8,31.0,29.92,SSW,211,7.0,-999.0,77,-99.99,,,0.00,weatherlink.com 1.10,2013-01-09 04:47:00,
2013-01-08 22:49:00,37.8,31.2,29.92,South,177,8.0,20.0,77,0.00,,,0.00,Wunderground v.1.15,2013-01-09 04:49:00,
2013-01-08 22:53:00,37.8,31.2,29.92,SSW,205,8.0,20.0,77,0.00,,,0.00,Wunderground v.1.15,2013-01-09 04:53:00,
2013-01-08 22:54:00,37.8,31.2,29.92,SSW,210,8.0,20.0,77,0.00,,,0.00,Wunderground v.1.15,2013-01-09 04:54:00,
2013-01-08 22:55:00,37.8,31.2,29.92,SW,232,8.0,20.0,77,0.00,,,0.00,Wunderground v.1.15,2013-01-09 04:55:00,
2013-01-08 22:57:00,37.7,31.1,29.92,SSW,196,7.0,7.0,77,0.00,,,0.00,Wunderground v.1.15,2013-01-09 04:57:00,
2013-01-08 22:59:00,37.7,31.1,29.92,SW,219,7.0,7.0,77,0.00,,,0.00,Wunderground v.1.15,2013-01-09 04:59:00,
2013-01-08 23:00:00,37.7,31.1,29.92,SSW,211,7.0,7.0,77,0.00,,,0.00,Wunderground v.1.15,2013-01-09 05:00:00,
2013-01-08 23:02:00,37.7,31.1,29.92,SW,215,7.0,9.0,77,0.00,,,0.00,Wunderground v.1.15,2013-01-09 05:02:00,
2013-01-08 23:03:00,37.7,31.1,29.92,SW,218,7.0,9.0,77,0.00,,,0.00,Wunderground v.1.15,2013-01-09 05:03:00,
2013-01-08 23:04:00,37.7,31.1,29.92,South,186,7.0,9.0,77,0.00,,,0.00,Wunderground v.1.15,2013-01-09 05:04:00,
2013-01-08 23:06:00,37.7,31.1,29.92,SW,217,7.0,7.0,77,0.00,,,0.00,Wunderground v.1.15,2013-01-09 05:06:00,
2013-01-08 23:07:00,37.7,31.1,29.92,WSW,237,6.0,7.0,77,0.00,,,0.00,Wunderground v.1.15,2013-01-09 05:07:00,
2013-01-08 23:13:00,37.8,31.2,29.92,South,183,6.0,8.0,77,0.00,,,0.00,Wunderground v.1.15,2013-01-09 05:13:00,
2013-01-08 23:15:00,37.8,31.2,29.92,SSW,200,6.0,8.0,77,0.00,,,0.00,Wunderground v.1.15,2013-01-09 05:15:00,
2013-01-08 23:16:00,37.8,31.2,29.91,SSW,213,6.0,6.0,77,0.00,,,0.00,Wunderground v.1.15,2013-01-09 05:16:00,
2013-01-08 23:17:00,37.8,31.0,29.91,SW,225,7.0,-999.0,77,-99.99,,,0.00,weatherlink.com 1.10,2013-01-09 05:17:00,
2013-01-08 23:22:00,37.8,31.2,29.91,SSW,211,6.0,10.0,77,0.00,,,0.00,Wunderground v.1.15,2013-01-09 05:22:00,
2013-01-08 23:23:00,37.8,31.2,29.91,SW,219,6.0,10.0,77,0.00,,,0.00,Wunderground v.1.15,2013-01-09 05:23:00,
2013-01-08 23:24:00,37.9,31.3,29.91,SSW,198,7.0,11.0,77,0.00,,,0.00,Wunderground v.1.15,2013-01-09 05:24:00,
2013-01-08 23:28:00,37.9,31.3,29.91,SW,228,7.0,19.0,77,0.00,,,0.00,Wunderground v.1.15,2013-01-09 05:28:00,
2013-01-08 23:29:00,37.9,31.3,29.91,SSW,213,7.0,19.0,77,0.00,,,0.00,Wunderground v.1.15,2013-01-09 05:29:00,
2013-01-08 23:30:00,37.9,31.3,29.91,SW,228,7.0,19.0,77,0.00,,,0.00,Wunderground v.1.15,2013-01-09 05:30:00,
2013-01-08 23:31:00,38.0,31.0,29.91,WSW,248,9.0,-999.0,77,-99.99,,,0.00,weatherlink.com 1.10,2013-01-09 05:31:00,
2013-01-08 23:34:00,38.0,31.4,29.91,SSW,200,7.0,19.0,77,0.00,,,0.00,Wunderground v.1.15,2013-01-09 05:34:00,
2013-01-08 23:36:00,38.0,31.4,29.91,WSW,240,7.0,7.0,77,0.00,,,0.00,Wunderground v.1.15,2013-01-09 05:36:00,
2013-01-08 23:37:00,38.0,31.4,29.91,SW,218,7.0,19.0,77,0.00,,,0.00,Wunderground v.1.15,2013-01-09 05:37:00,
2013-01-08 23:41:00,37.9,31.3,29.91,WSW,237,7.0,19.0,77,0.00,,,0.00,Wunderground v.1.15,2013-01-09 05:41:00,
2013-01-08 23:43:00,37.9,31.3,29.91,WSW,254,7.0,19.0,77,0.00,,,0.00,Wunderground v.1.15,2013-01-09 05:43:00,
2013-01-08 23:45:00,37.9,31.7,29.91,SSW,205,7.0,19.0,78,0.00,,,0.00,Wunderground v.1.15,2013-01-09 05:45:00,
2013-01-08 23:46:00,37.9,32.0,29.91,WSW,248,9.0,-999.0,78,-99.99,,,0.00,weatherlink.com 1.10,2013-01-09 05:46:00,
2013-01-08 23:48:00,37.9,31.7,29.91,WSW,240,8.0,19.0,78,0.00,,,0.00,Wunderground v.1.15,2013-01-09 05:48:00,
2013-01-08 23:50:00,37.9,31.7,29.91,SW,223,8.0,19.0,78,0.00,,,0.00,Wunderground v.1.15,2013-01-09 05:50:00,
2013-01-08 23:51:00,37.9,31.7,29.91,WSW,240,8.0,19.0,78,0.00,,,0.00,Wunderground v.1.15,2013-01-09 05:51:00,
2013-01-08 23:53:00,37.8,31.6,29.91,SW,236,7.0,19.0,78,0.00,,,0.00,Wunderground v.1.15,2013-01-09 05:53:00,
2013-01-08 23:55:00,37.9,31.7,29.91,SW,232,8.0,19.0,78,0.00,,,0.00,Wunderground v.1.15,2013-01-09 05:55:00,
2013-01-08 23:57:00,37.9,31.7,29.91,SSW,209,8.0,12.0,78,0.00,,,0.00,Wunderground v.1.15,2013-01-09 05:57:00,